YYYY MM/DD hh:mm	Temp	Humid	W_dir	W_spd	Barom	T_int	Light	Power	Temp2	P2	Snow	T_mid	T_base	Precip
Year Date  Time 	(F)	(%)	(Deg)	(MPH)	("Hg)	(F)	/1000	(V)	(F)	-	(")	(F)	(F)	(")
2017 10/12 00:00	26.5	99.7	282.8	21.5	29.87	29.7	1.7	12.99	-39.9	0	4.4	26.3	32.1	0	13	0	0	0	38.2	36.6	0.0
2017 10/12 00:15	26.4	99.8	229.5	20.1	29.86	29.6	1.7	12.99	-39.9	0	4.3	26.3	31.8	0	13	0	0	0	38.2	36.5	0.0
2017 10/12 00:30	26.6	99.9	247.9	18.4	29.86	29.5	1.4	12.98	-40.0	0	4.4	26.3	31.7	0	13	0	0	0	38.1	36.5	0.0
2017 10/12 00:45	26.4	99.7	247.9	19.9	29.86	29.5	1.4	13.00	-40.1	0	4.4	26.3	31.8	0	13	0	0	0	38.1	36.5	0.0
2017 10/12 01:00	26.4	99.8	212.1	21.4	29.85	29.3	1.4	12.98	-40.0	0	4.4	26.3	31.8	0	13	0	0	0	38.0	36.3	0.0
2017 10/12 01:15	26.2	99.7	254.8	22.0	29.85	29.3	1.4	13.00	-40.0	0	4.3	26.3	31.7	0	13	0	0	0	38.1	36.3	0.0
2017 10/12 01:30	26.1	99.5	220.7	26.2	29.84	29.1	1.4	12.99	-40.0	0	4.3	26.3	31.5	0	13	0	0	0	38.0	36.3	0.0
2017 10/12 01:45	26.0	99.6	238.7	26.2	29.84	29.1	1.4	13.00	-40.0	0	4.3	26.3	31.5	0	13	0	0	0	37.9	36.2	0.0
2017 10/12 02:00	26.1	99.7	258.5	24.0	29.84	28.9	1.7	13.00	-40.1	0	4.4	26.3	31.5	0	13	0	0	0	37.9	36.1	0.0
2017 10/12 02:15	26.1	99.7	218.2	24.0	29.85	28.9	1.4	12.98	-40.1	0	4.4	26.3	31.5	0	13	0	0	0	37.9	36.1	0.0
2017 10/12 02:30	26.5	99.7	212.4	27.5	29.84	28.8	1.4	12.98	-40.0	0	4.4	26.3	31.5	0	13	0	0	0	37.8	36.1	0.0
2017 10/12 02:45	26.5	99.7	241.6	22.6	29.84	28.7	1.4	12.96	-40.0	0	4.4	26.3	31.6	0	13	0	0	0	37.7	36.0	0.0
2017 10/12 03:00	26.5	99.8	227.1	25.1	29.83	28.7	1.4	12.97	-40.1	0	4.3	26.3	31.5	0	13	0	0	0	37.8	36.0	0.0
2017 10/12 03:15	26.5	99.7	222.8	28.2	29.83	28.4	1.4	12.98	-40.0	0	4.3	26.3	31.6	0	13	0	0	0	37.6	36.0	0.0
2017 10/12 03:30	26.7	99.7	218.4	32.8	29.82	28.4	1.4	12.97	-40.0	0	4.3	26.3	31.7	0	13	0	0	0	37.6	36.0	0.0
2017 10/12 03:45	26.5	99.7	241.9	24.5	29.82	28.4	1.4	12.97	-39.9	0	4.3	26.3	31.7	0	13	0	0	0	37.5	35.9	0.0
2017 10/12 04:00	26.1	99.7	224.6	27.5	29.81	28.2	1.7	12.98	-40.0	0	4.3	26.3	31.5	0	13	0	0	0	37.4	35.9	0.0
2017 10/12 04:15	26.2	99.7	246.2	27.1	29.81	28.2	1.4	13.00	-40.0	0	4.3	26.3	31.6	0	13	0	0	0	37.5	35.9	0.0
2017 10/12 04:30	26.1	99.6	235.7	23.4	29.80	28.2	1.4	13.00	-40.0	0	4.3	26.3	31.6	0	13	0	0	0	37.4	35.9	0.0
2017 10/12 04:45	26.1	99.7	232.0	26.0	29.80	28.1	1.4	12.96	-39.8	0	4.3	26.3	31.7	0	13	0	0	0	37.2	35.8	0.0
2017 10/12 05:00	26.1	99.7	241.6	27.4	29.80	28.0	1.7	12.98	-39.9	0	4.3	26.3	31.6	0	13	0	0	0	37.4	35.8	0.0
2017 10/12 05:15	26.0	99.7	223.8	29.3	29.79	28.0	1.7	13.00	-40.0	0	4.3	26.3	31.6	0	13	0	0	0	37.2	35.7	0.0
2017 10/12 05:30	26.1	99.5	242.6	28.7	29.79	27.9	1.4	12.96	-39.9	0	4.1	26.3	32.0	0	13	0	0	0	37.2	35.7	0.0
2017 10/12 05:45	26.1	99.5	239.0	37.2	29.79	27.8	1.7	13.00	-40.0	0	4.2	26.3	31.8	0	13	0	0	0	37.1	35.7	0.0
2017 10/12 06:00	26.1	99.7	223.3	30.9	29.79	27.8	1.4	12.98	-40.1	0	4.2	26.3	32.0	0	13	0	0	0	37.1	35.5	0.0
2017 10/12 06:15	26.1	99.7	229.4	32.7	29.78	27.8	1.7	12.98	-39.9	0	4.1	26.3	32.0	0	13	0	0	0	37.0	35.5	0.0
2017 10/12 06:30	26.2	99.7	197.8	34.4	29.78	27.7	1.7	12.98	-40.0	0	4.3	26.3	32.0	0	13	0	0	0	37.0	35.4	0.0
2017 10/12 06:45	26.4	99.7	211.6	36.5	29.78	27.6	2.7	13.00	-39.9	0	4.4	26.3	32.1	0	13	0	0	0	37.0	35.4	0.0
2017 10/12 07:00	26.4	99.6	204.4	31.8	29.78	27.6	16.6	12.98	-39.9	0	4.6	26.3	32.3	0	13	0	0	0	36.8	35.4	0.0
2017 10/12 07:15	26.2	99.6	205.7	29.9	29.78	27.6	164.7	12.96	-39.9	0	4.4	26.3	32.4	0	13	0	0	0	37.0	35.3	0.0
2017 10/12 07:30	26.6	99.9	225.0	30.4	29.78	27.5	360.2	12.98	-40.0	0	4.6	26.3	32.5	0	13	0	0	0	37.0	35.3	0.0
2017 10/12 07:45	26.5	99.7	209.3	27.2	29.78	27.4	576.8	12.96	-39.9	0	4.8	26.3	32.7	0	13	0	0	0	36.8	35.3	0.0
2017 10/12 08:00	26.7	99.9	215.8	28.0	29.78	27.4	737.0	12.98	-39.9	0	5.0	27.2	33.2	0	13	0	0	0	36.7	35.3	0.0
2017 10/12 08:15	27.1	99.9	249.2	25.9	29.78	27.4	757.0	12.98	-40.0	0	5.2	27.2	33.5	0	13	0	0	0	36.7	35.3	0.0
2017 10/12 08:30	27.2	99.9	205.9	30.2	29.78	27.3	745.0	13.00	-40.1	0	5.4	27.2	33.4	0	13	0	0	0	36.9	35.4	0.0
2017 10/12 08:45	27.3	100.1	232.1	29.3	29.78	27.2	773.0	12.98	-40.0	0	5.6	27.2	33.6	0	13	0	0	0	36.8	35.4	0.0
2017 10/12 09:00	27.5	99.9	242.4	28.4	29.78	27.2	759.0	12.98	-39.9	0	5.6	27.2	33.7	0	13	0	0	0	36.8	35.4	0.0
2017 10/12 09:15	27.3	100.2	202.2	33.2	29.78	27.2	805.0	12.97	-40.0	0	4.8	27.2	34.1	0	13	0	0	0	36.9	35.4	0.0
2017 10/12 09:30	27.5	100.2	226.8	28.9	29.78	27.2	767.0	13.00	-40.1	0	5.7	27.2	33.6	0	13	0	0	0	36.8	35.5	0.0
2017 10/12 09:45	27.5	100.2	228.2	28.5	29.78	27.2	813.0	12.98	-40.0	0	6.5	27.2	34.0	0	13	0	0	0	36.8	35.5	0.0
2017 10/12 10:00	27.7	100.3	226.4	24.0	29.77	27.1	796.0	12.98	-40.1	0	6.7	28.1	34.2	0	13	0	0	0	36.9	35.5	0.0
2017 10/12 10:15	27.7	100.2	222.8	36.5	29.76	27.1	789.0	12.99	-40.1	0	7.0	28.1	34.2	0	13	0	0	0	37.0	35.7	0.0
2017 10/12 10:30	27.5	100.3	221.3	34.7	29.77	27.1	800.0	12.97	-40.0	0	7.2	27.2	34.1	0	13	0	0	0	37.1	35.7	0.0
2017 10/12 10:45	27.6	100.2	219.5	42.4	29.75	27.1	817.0	12.98	-40.2	0	7.5	28.1	34.1	0	13	0	0	0	37.0	35.8	0.0
2017 10/12 11:00	27.6	100.3	218.7	32.9	29.76	27.1	778.0	12.98	-39.9	0	8.1	28.1	33.9	0	13	0	0	0	37.0	35.8	0.0
2017 10/12 11:15	27.7	100.2	217.1	29.3	29.77	27.1	767.0	13.00	-40.1	0	8.3	27.2	34.0	0	13	0	0	0	37.0	35.8	0.0
2017 10/12 11:30	27.7	100.2	215.2	28.8	29.77	27.2	813.0	12.97	-39.9	0	8.3	28.1	34.5	0	13	0	0	0	37.0	35.8	0.0
2017 10/12 11:45	27.8	100.2	213.6	25.9	29.77	27.2	806.0	12.97	-39.9	0	8.8	28.1	34.3	0	13	0	0	0	37.0	35.8	0.0
2017 10/12 12:00	28.2	100.3	214.5	30.1	29.77	27.2	866.0	12.98	-39.9	0	8.9	29.0	35.7	0	13	0	0	0	37.2	35.9	0.0
2017 10/12 12:15	28.3	100.4	214.6	32.7	29.77	27.2	866.0	13.00	-40.0	0	9.3	29.0	36.6	0	13	0	0	0	37.4	36.0	0.0
2017 10/12 12:30	28.6	100.4	225.2	31.9	29.76	27.2	874.0	13.00	-39.9	0	9.3	29.0	37.1	0	13	0	0	0	37.5	36.2	0.0
2017 10/12 12:45	28.8	100.5	216.0	35.1	29.76	27.2	885.0	12.99	-40.1	0	9.3	29.0	36.1	0	13	0	0	0	37.5	36.5	0.0
2017 10/12 13:00	28.6	100.5	219.8	34.6	29.76	27.2	864.0	12.98	-40.1	0	9.6	29.0	35.9	0	14	0	0	0	37.8	36.8	0.0
2017 10/12 13:15	28.4	100.5	220.8	34.5	29.76	27.3	802.0	12.99	-40.0	0	9.8	28.1	34.9	0	14	0	0	0	37.6	36.9	0.0
2017 10/12 13:30	28.2	100.4	220.8	35.8	29.76	27.4	828.0	12.98	-40.0	0	7.2	28.1	34.5	0	14	0	0	0	37.4	36.9	0.0
2017 10/12 13:45	28.4	100.4	220.9	32.2	29.76	27.4	843.0	13.01	-40.2	0	10.5	29.0	35.3	0	14	0	0	0	37.4	37.0	0.0
2017 10/12 14:00	28.4	100.6	226.0	34.0	29.75	27.4	841.0	13.00	-40.1	0	10.0	28.1	35.5	0	14	0	0	0	37.7	37.0	0.0
2017 10/12 14:15	28.6	100.4	226.0	28.6	29.76	27.4	866.0	12.99	-40.0	0	7.2	29.0	35.9	0	14	0	0	0	37.5	37.1	0.0
2017 10/12 14:30	28.6	100.6	221.7	30.8	29.75	27.6	854.0	12.98	-40.1	0	9.6	29.0	35.5	0	14	0	0	0	37.6	37.1	0.0
2017 10/12 14:45	28.7	100.4	222.2	33.3	29.75	27.6	809.0	12.99	-40.0	0	10.9	28.1	35.0	0	14	0	0	0	37.8	37.2	0.0
2017 10/12 15:00	27.9	100.4	222.1	38.9	29.74	27.6	791.0	12.98	-39.9	0	11.2	28.1	34.1	0	14	0	0	0	37.9	37.2	0.0
2017 10/12 15:15	27.8	100.4	222.1	35.9	29.75	27.6	823.0	12.98	-40.2	0	11.3	28.1	34.3	0	14	0	0	0	37.9	37.1	0.0
2017 10/12 15:30	28.1	100.4	221.8	27.9	29.76	27.8	749.0	12.98	-40.1	0	12.6	28.1	34.3	0	14	0	0	0	37.8	37.1	0.0
2017 10/12 15:45	27.9	100.4	222.3	26.4	29.76	27.8	733.0	13.00	-40.0	0	12.8	28.1	34.3	0	14	0	0	0	37.8	37.1	0.0
2017 10/12 16:00	28.3	100.4	222.1	24.2	29.77	27.8	695.3	12.98	-40.0	0	13.3	28.1	34.3	0	14	0	0	0	37.7	37.0	0.0
2017 10/12 16:15	28.1	100.4	222.7	29.6	29.76	27.8	642.3	12.96	-40.0	0	13.9	28.1	34.5	0	14	0	0	0	37.7	36.9	0.0
2017 10/12 16:30	28.3	100.4	222.4	24.6	29.76	27.8	764.0	13.00	-39.9	0	14.3	28.1	34.6	0	14	0	0	0	37.8	36.9	0.0
2017 10/12 16:45	28.4	100.4	223.6	33.2	29.74	27.8	752.0	12.99	-40.1	0	14.3	28.1	34.8	0	14	0	0	0	37.7	36.9	0.0
2017 10/12 17:00	28.8	100.5	224.2	32.2	29.75	27.8	696.7	12.99	-39.9	0	14.3	29.0	34.6	0	14	0	0	0	37.7	36.8	0.0
2017 10/12 17:15	29.2	100.7	240.2	26.8	29.75	27.8	646.4	12.98	-40.0	0	14.4	29.0	35.1	0	14	0	0	0	37.6	36.8	0.0
2017 10/12 17:30	29.9	100.6	254.1	27.6	29.75	27.8	691.2	12.98	-40.1	0	14.0	29.0	35.8	0	14	0	0	0	37.6	36.8	0.0
2017 10/12 17:45	29.7	100.8	226.1	27.9	29.75	27.8	550.3	12.98	-40.1	0	14.3	29.0	34.2	0	14	0	0	0	37.7	36.8	0.0
2017 10/12 18:00	29.4	100.6	223.7	29.8	29.75	27.8	471.6	12.98	-40.0	0	14.3	29.0	34.9	0	14	0	0	0	37.7	36.7	0.0
2017 10/12 18:15	29.4	100.7	311.6	22.5	29.75	27.8	341.2	12.99	-40.0	0	14.4	29.0	35.0	0	14	0	0	0	37.6	36.7	0.0
2017 10/12 18:30	29.5	100.6	216.7	25.3	29.75	27.8	124.9	12.99	-40.0	0	14.3	29.0	35.1	0	14	0	0	0	37.6	36.6	0.0
2017 10/12 18:45	29.3	100.9	224.9	22.7	29.76	27.8	21.1	12.98	-40.0	0	14.6	29.0	35.1	0	14	0	0	0	37.6	36.6	0.0
2017 10/12 19:00	29.7	100.8	229.0	20.6	29.77	27.8	2.7	12.98	-39.9	0	14.7	29.0	35.1	0	14	0	0	0	37.7	36.5	0.0
2017 10/12 19:15	29.8	100.8	258.0	15.2	29.76	27.8	1.7	12.98	-40.1	0	14.8	29.0	35.4	0	14	0	0	0	37.6	36.5	0.0
2017 10/12 19:30	30.1	100.8	268.6	20.6	29.77	27.8	1.4	13.00	-40.2	0	14.7	29.0	35.1	0	14	0	0	0	37.5	36.5	0.0
2017 10/12 19:45	30.4	100.8	283.1	14.1	29.77	27.8	1.4	12.98	-39.9	0	14.7	29.0	35.2	0	14	0	0	0	37.5	36.3	0.0
2017 10/12 20:00	30.3	100.9	229.7	17.3	29.78	27.8	1.4	12.98	-40.0	0	14.6	29.0	35.2	0	14	0	0	0	37.5	36.3	0.0
2017 10/12 20:15	30.1	101.0	255.4	19.5	29.78	27.8	1.7	13.00	-40.1	0	14.6	29.0	35.4	0	14	0	0	0	37.4	36.3	0.0
2017 10/12 20:30	30.3	101.0	246.6	12.4	29.77	27.8	1.4	12.98	-40.0	0	14.4	29.0	35.3	0	14	0	0	0	37.4	36.3	0.0
2017 10/12 20:45	30.1	101.0	225.1	15.8	29.78	27.8	1.7	12.98	-39.9	0	14.5	29.0	35.1	0	14	0	0	0	37.5	36.3	0.0
2017 10/12 21:00	30.0	100.9	226.3	16.9	29.78	27.8	1.4	12.98	-40.0	0	13.8	29.0	34.9	0	14	0	0	0	37.4	36.2	0.0
2017 10/12 21:15	29.9	100.9	232.6	13.2	29.78	27.8	1.7	12.98	-39.9	0	14.8	29.0	34.5	0	14	0	0	0	37.4	36.2	0.0
2017 10/12 21:30	29.3	101.0	265.6	14.5	29.79	27.8	1.4	13.00	-39.9	0	14.6	29.0	34.3	0	14	0	0	0	37.2	36.2	0.0
2017 10/12 21:45	29.2	101.1	238.1	13.9	29.79	27.8	1.7	12.98	-39.9	0	16.0	29.0	34.4	0	14	0	0	0	37.2	36.2	0.0
2017 10/12 22:00	29.2	101.0	259.6	21.3	29.78	27.8	1.4	12.99	-40.0	0	13.7	29.0	34.1	0	14	0	0	0	37.2	36.1	0.0
2017 10/12 22:15	28.7	100.9	245.6	22.4	29.78	27.8	1.4	13.01	-39.9	0	15.7	29.0	34.5	0	14	0	0	0	37.1	36.1	0.0
2017 10/12 22:30	28.7	100.9	237.8	21.3	29.79	27.8	1.4	12.98	-39.9	0	17.0	28.1	34.0	0	14	0	0	0	37.0	36.1	0.0
2017 10/12 22:45	28.7	100.7	237.6	25.2	29.79	27.8	1.4	13.00	-39.9	0	17.5	28.1	34.1	0	14	0	0	0	37.0	36.1	0.0
2017 10/12 23:00	28.4	100.8	241.2	15.5	29.79	27.8	1.4	13.00	-39.9	0	17.6	28.1	33.9	0	14	0	0	0	37.1	36.1	0.0
2017 10/12 23:15	28.6	100.6	245.4	13.5	29.80	27.8	1.4	12.97	-40.0	0	17.6	28.1	33.5	0	14	0	0	0	37.1	36.0	0.0
2017 10/12 23:30	28.4	100.6	245.0	16.1	29.80	27.8	1.4	12.99	-39.8	0	18.0	28.1	33.6	0	14	0	0	0	37.0	36.0	0.0
2017 10/12 23:45	28.4	100.6	240.6	12.1	29.80	27.8	1.7	13.00	-40.0	0	18.0	28.1	33.6	0	14	0	0	0	37.1	36.0	0.0
2017 10/13 00:00	28.7	100.6	253.3	13.3	29.80	27.8	1.4	12.98	-40.1	0	17.6	29.0	33.7	0	14	0	0	0	36.9	36.0	0.0
2017 10/13 00:15	28.8	100.6	240.9	10.6	29.80	27.8	1.7	13.01	-40.1	0	17.6	29.0	33.7	0	14	0	0	0	36.9	36.0	0.0
2017 10/13 00:30	28.8	100.6	232.3	16.6	29.81	27.8	1.7	12.98	-40.0	0	17.9	28.1	33.6	0	14	0	0	0	37.0	36.0	0.0
2017 10/13 00:45	28.8	100.7	238.9	11.3	29.80	27.8	1.7	12.98	-39.9	0	18.1	28.1	33.7	0	14	0	0	0	36.9	36.0	0.0
2017 10/13 01:00	28.9	100.8	240.3	15.4	29.80	27.8	1.4	13.00	-40.0	0	18.0	29.0	33.7	0	14	0	0	0	36.9	35.9	0.0
2017 10/13 01:15	28.8	100.7	246.6	26.6	29.79	27.8	1.7	12.99	-40.0	0	18.1	29.0	33.9	0	14	0	0	0	36.8	36.0	0.0
2017 10/13 01:30	28.9	100.6	254.4	26.2	29.80	27.8	1.4	12.98	-40.1	0	18.2	29.0	33.9	0	14	0	0	0	36.8	35.9	0.0
2017 10/13 01:45	28.9	100.8	232.0	16.4	29.80	27.6	1.4	12.98	-39.8	0	18.1	29.0	33.9	0	14	0	0	0	36.9	35.9	0.0
2017 10/13 02:00	28.9	100.8	257.5	23.1	29.81	27.7	1.4	12.97	-40.1	0	18.1	28.1	33.6	0	14	0	0	0	36.8	35.9	0.0
2017 10/13 02:15	28.8	100.8	261.7	28.5	29.79	27.6	1.7	12.97	-39.9	0	18.3	28.1	33.5	0	14	0	0	0	36.7	35.9	0.0
2017 10/13 02:30	28.6	100.7	240.5	15.4	29.80	27.6	1.7	13.00	-40.0	0	18.1	28.1	33.5	0	14	0	0	0	36.8	35.9	0.0
2017 10/13 02:45	28.3	100.7	241.0	17.9	29.80	27.6	1.4	12.98	-40.0	0	18.4	28.1	33.4	0	14	0	0	0	36.8	35.9	0.0
2017 10/13 03:00	28.4	100.6	280.9	16.8	29.80	27.6	1.4	12.97	-40.1	0	18.2	28.1	33.4	0	14	0	0	0	36.7	35.9	0.0
2017 10/13 03:15	28.3	100.6	279.8	22.0	29.80	27.6	1.4	12.98	-40.1	0	17.8	28.1	33.3	0	14	0	0	0	36.7	35.9	0.0
2017 10/13 03:30	28.3	100.6	268.5	19.1	29.79	27.6	1.4	12.99	-39.9	0	17.6	28.1	33.3	0	14	0	0	0	36.7	35.9	0.0
2017 10/13 03:45	28.1	100.6	288.3	17.1	29.79	27.6	1.7	13.00	-39.9	0	17.6	28.1	33.2	0	14	0	0	0	36.7	35.9	0.0
2017 10/13 04:00	28.1	100.6	279.4	23.4	29.80	27.6	1.4	12.98	-39.9	0	17.4	28.1	33.3	0	14	0	0	0	36.7	35.8	0.0
2017 10/13 04:15	28.4	100.5	331.6	18.5	29.80	27.6	1.4	12.98	-40.1	0	17.3	28.1	33.4	0	14	0	0	0	36.7	35.8	0.0
2017 10/13 04:30	28.2	100.6	258.9	19.5	29.81	27.6	1.4	12.98	-39.9	0	18.1	28.1	33.4	0	14	0	0	0	36.7	35.9	0.0
2017 10/13 04:45	28.3	100.5	257.8	20.1	29.81	27.6	1.7	12.99	-40.0	0	18.1	28.1	33.3	0	14	0	0	0	36.6	35.8	0.0
2017 10/13 05:00	28.6	100.5	259.7	20.4	29.81	27.6	1.4	12.98	-40.1	0	18.3	28.1	33.3	0	14	0	0	0	36.6	35.8	0.0
2017 10/13 05:15	28.4	100.5	253.5	15.9	29.82	27.6	1.7	12.98	-39.9	0	18.3	28.1	33.3	0	14	0	0	0	36.6	35.8	0.0
2017 10/13 05:30	28.6	100.6	260.9	11.4	29.82	27.6	1.4	13.00	-39.9	0	18.2	28.1	33.3	0	14	0	0	0	36.7	35.8	0.0
2017 10/13 05:45	28.3	100.6	299.1	8.9	29.82	27.5	1.4	12.98	-40.1	0	18.4	27.2	33.0	0	14	0	0	0	36.6	35.8	0.0
2017 10/13 06:00	27.9	100.6	262.3	13.4	29.82	27.5	1.4	13.01	-40.1	0	17.1	27.2	32.7	0	14	0	0	0	36.7	35.8	0.0
2017 10/13 06:15	27.7	100.5	262.3	0.1	29.82	27.5	1.4	12.98	-40.1	0	18.3	27.2	32.6	0	14	0	0	0	36.5	35.8	0.0
2017 10/13 06:30	27.6	100.3	259.0	4.0	29.83	27.5	1.4	12.98	-40.0	0	18.8	27.2	32.7	0	14	0	0	0	36.6	35.7	0.0
2017 10/13 06:45	27.5	100.3	257.9	8.9	29.82	27.4	1.7	12.98	-40.1	0	19.2	27.2	32.8	0	14	0	0	0	36.6	35.7	0.0
2017 10/13 07:00	27.3	100.3	257.8	13.1	29.81	27.4	5.4	12.98	-40.1	0	19.9	27.2	32.8	0	14	0	0	0	36.6	35.7	0.0
2017 10/13 07:15	27.2	100.3	257.8	17.8	29.82	27.4	34.3	13.00	-39.9	0	20.3	26.3	32.8	0	14	0	0	0	36.5	35.7	0.0
2017 10/13 07:30	27.2	100.2	257.7	3.8	29.81	27.4	144.3	12.98	-39.9	0	17.0	26.3	32.6	0	14	0	0	0	36.5	35.7	0.0
2017 10/13 07:45	26.7	100.0	257.7	16.4	29.82	27.4	276.0	13.00	-40.1	0	19.5	26.3	32.4	0	14	0	0	0	36.5	35.7	0.0
2017 10/13 08:00	26.6	100.0	257.7	12.6	29.81	27.4	311.0	13.00	-39.9	0	20.6	26.3	32.6	0	14	0	0	0	36.5	35.5	0.0
2017 10/13 08:15	26.5	100.0	257.4	6.8	29.82	27.4	585.6	12.98	-40.0	0	20.8	26.3	33.3	0	14	0	0	0	36.3	35.7	0.0
2017 10/13 08:30	26.7	100.0	255.1	4.7	29.82	27.4	507.6	12.98	-40.0	0	20.5	27.2	32.8	0	14	0	0	0	36.3	35.5	0.0
2017 10/13 08:45	26.7	100.0	253.7	20.1	29.82	27.3	578.5	12.99	-39.9	0	19.0	27.2	33.0	0	14	0	0	0	36.3	35.7	0.0
2017 10/13 09:00	27.1	100.2	252.8	7.7	29.84	27.3	508.2	12.98	-39.9	0	21.2	27.2	33.0	0	14	0	0	0	36.3	35.5	0.0
2017 10/13 09:15	27.2	100.2	252.7	10.9	29.83	27.2	742.0	12.98	-39.9	0	21.2	27.2	33.3	0	14	0	0	0	36.3	35.7	0.0
2017 10/13 09:30	27.5	100.3	255.2	16.1	29.84	27.2	626.0	12.98	-40.1	0	21.3	28.1	33.5	0	14	0	0	0	36.3	35.7	0.0
2017 10/13 09:45	27.5	100.4	255.1	13.7	29.83	27.2	813.0	12.99	-39.9	0	21.6	28.1	33.5	0	14	0	0	0	36.3	35.7	0.0
2017 10/13 10:00	27.5	100.4	285.4	12.9	29.85	27.2	663.4	12.99	-40.0	0	21.0	27.2	33.4	0	14	0	0	0	36.5	35.8	0.0
2017 10/13 10:15	27.5	100.5	265.6	5.9	29.85	27.2	804.0	13.00	-39.9	0	21.0	28.1	34.4	0	14	0	0	0	36.5	35.8	0.0
2017 10/13 10:30	28.2	100.6	269.0	11.5	29.85	27.2	824.0	13.01	-40.0	0	21.0	29.0	36.2	0	14	0	0	0	36.7	35.9	0.0
2017 10/13 10:45	28.8	100.8	256.7	11.5	29.86	27.2	843.0	13.00	-40.0	0	22.1	29.0	35.0	0	15	0	0	0	36.8	36.1	0.0
2017 10/13 11:00	29.3	100.9	265.5	18.1	29.86	27.2	834.0	12.98	-40.1	0	22.3	29.0	33.7	0	15	0	0	0	36.9	36.5	0.0
2017 10/13 11:15	29.3	101.1	297.7	7.9	29.87	27.2	835.0	12.99	-40.1	0	22.8	29.0	35.0	0	15	0	0	0	37.4	36.7	0.0
2017 10/13 11:30	29.5	101.0	296.6	10.2	29.87	27.2	889.0	12.98	-40.0	0	21.2	29.9	36.4	0	15	0	0	0	37.6	36.8	0.0
2017 10/13 11:45	30.0	101.0	316.0	14.2	29.87	27.2	815.0	12.99	-40.0	0	22.1	29.9	34.4	0	15	0	0	0	37.9	37.1	0.0
2017 10/13 12:00	29.2	101.3	301.6	16.0	29.87	27.2	864.0	13.00	-40.1	0	22.6	29.9	34.6	0	15	0	0	0	37.6	37.4	0.0
2017 10/13 12:15	28.3	101.3	301.4	14.4	29.87	27.2	867.0	12.98	-39.9	0	21.9	30.8	36.2	0	15	0	0	0	38.7	37.6	0.0
2017 10/13 12:30	28.4	101.2	311.3	14.0	29.87	27.2	848.0	12.98	-39.9	0	21.9	30.8	35.8	0	16	0	0	0	38.6	38.0	0.0
2017 10/13 12:45	27.7	101.2	10.0	21.9	29.87	27.3	845.0	13.00	-40.0	0	22.3	29.9	35.3	0	16	0	0	0	38.9	38.5	0.0
2017 10/13 13:00	27.2	101.2	300.3	11.5	29.87	27.4	857.0	12.98	-40.1	0	21.3	30.8	35.7	0	17	0	0	0	39.3	38.7	0.0
2017 10/13 13:15	28.6	101.0	258.1	12.0	29.87	27.4	847.0	12.99	-40.1	0	22.4	30.8	33.9	0	17	0	0	0	39.5	38.9	0.0
2017 10/13 13:30	29.4	101.0	251.3	12.7	29.86	27.6	843.0	13.01	-40.1	0	21.7	30.8	34.4	0	17	0	0	0	39.8	39.2	0.0
2017 10/13 13:45	29.9	101.1	307.2	13.5	29.87	27.6	801.0	12.98	-39.9	0	22.5	29.9	33.6	0	17	0	0	0	40.0	39.2	0.0
2017 10/13 14:00	29.4	101.2	265.1	12.8	29.86	27.6	830.0	12.99	-39.8	0	22.1	29.9	34.5	0	17	0	0	0	40.2	39.2	0.0
2017 10/13 14:15	29.7	101.1	236.0	15.2	29.85	27.8	863.0	12.98	-39.9	0	20.6	30.8	36.6	0	17	0	0	0	40.3	39.2	0.0
2017 10/13 14:30	29.9	101.2	290.7	16.5	29.86	28.0	836.0	13.00	-40.1	0	20.2	29.9	36.0	0	17	0	0	0	40.5	39.2	0.0
2017 10/13 14:45	29.9	101.2	275.8	19.2	29.86	28.0	818.0	12.98	-40.0	0	22.7	29.9	35.2	0	18	0	0	0	40.5	39.2	0.0
2017 10/13 15:00	29.5	101.2	89.0	12.0	29.87	28.2	782.0	12.98	-40.0	0	22.4	29.9	34.3	0	18	0	0	0	40.3	39.0	0.0
2017 10/13 15:15	29.2	101.2	272.6	11.2	29.87	28.2	808.0	12.99	-39.9	0	21.2	29.9	34.9	0	18	0	0	0	39.9	38.9	0.0
2017 10/13 15:30	29.2	101.2	274.9	14.7	29.87	28.4	795.0	12.98	-40.0	0	22.1	29.9	34.4	0	18	0	0	0	40.3	38.8	0.0
2017 10/13 15:45	29.2	101.3	234.1	12.7	29.88	28.4	799.0	13.00	-40.0	0	22.1	29.9	34.5	0	18	0	0	0	39.8	38.7	0.0
2017 10/13 16:00	29.1	101.3	283.4	9.2	29.89	28.7	758.0	13.00	-40.0	0	22.4	29.0	34.5	0	18	0	0	0	39.6	38.6	0.0
2017 10/13 16:15	28.9	101.3	272.3	10.1	29.89	28.8	775.0	12.99	-39.9	0	22.8	29.0	34.2	0	18	0	0	0	39.6	38.5	0.0
2017 10/13 16:30	29.3	101.1	236.4	8.8	29.90	28.9	875.0	12.97	-40.0	0	22.6	29.9	35.5	0	18	0	0	0	39.6	38.4	0.0
2017 10/13 16:45	29.8	101.0	307.8	10.9	29.91	29.0	733.0	13.00	-40.1	0	22.6	29.9	34.9	0	18	0	0	0	39.5	38.2	0.0
2017 10/13 17:00	29.5	101.1	243.2	17.8	29.91	29.1	626.4	12.98	-40.0	0	22.3	29.0	33.9	0	19	0	0	0	39.6	38.1	0.0
2017 10/13 17:15	28.1	101.3	297.5	15.9	29.93	29.1	619.9	12.98	-39.9	0	22.3	27.2	33.2	0	19	0	0	0	39.6	38.1	0.0
2017 10/13 17:30	27.1	101.1	298.4	22.0	29.94	29.3	605.6	13.02	-40.0	0	22.8	27.2	33.3	0	19	0	0	0	39.9	37.9	0.0
2017 10/13 17:45	26.7	100.8	301.9	24.5	29.94	29.3	812.0	13.00	-39.9	0	23.0	27.2	33.0	0	19	0	0	0	39.5	37.8	0.0
2017 10/13 18:00	26.6	100.6	319.1	19.6	29.95	29.3	491.9	12.98	-40.0	0	23.1	26.3	32.8	0	19	0	0	0	39.3	37.7	0.0
2017 10/13 18:15	26.6	100.4	308.5	16.9	29.97	29.5	318.1	13.00	-39.9	0	22.9	26.3	32.2	0	19	0	0	0	39.3	37.6	0.0
2017 10/13 18:30	26.5	100.2	300.7	10.7	29.98	29.5	142.3	13.00	-40.1	0	23.0	26.3	32.5	0	20	0	0	0	39.3	37.5	0.0
2017 10/13 18:45	26.4	100.0	196.0	9.7	29.99	29.5	19.7	13.00	-40.0	0	22.9	26.3	32.4	0	20	0	0	0	39.2	37.2	0.0
2017 10/13 19:00	26.2	99.9	280.5	10.2	29.99	29.5	2.7	12.98	-40.0	0	22.8	26.3	32.4	0	20	0	0	0	39.0	37.1	0.0
2017 10/13 19:15	26.2	99.8	290.1	10.4	30.00	29.6	1.7	12.98	-39.9	0	23.0	25.4	32.1	0	21	0	0	0	38.9	37.0	0.0
2017 10/13 19:30	26.0	99.8	206.4	12.1	30.00	29.5	1.4	13.00	-40.0	0	22.8	25.4	32.1	0	21	0	0	0	38.7	36.9	0.0
2017 10/13 19:45	25.9	99.7	267.8	22.4	30.00	29.5	1.7	13.00	-40.0	0	22.9	25.4	32.1	0	21	0	0	0	38.8	36.8	0.0
2017 10/13 20:00	25.8	99.7	295.8	18.4	30.01	29.5	1.4	13.00	-40.0	0	22.8	25.4	31.7	0	21	0	0	0	38.7	36.7	0.0
2017 10/13 20:15	25.8	99.7	265.6	11.4	30.01	29.5	1.4	13.00	-40.0	0	22.8	25.4	31.8	0	21	0	0	0	38.7	36.6	0.0
2017 10/13 20:30	25.6	99.5	294.7	16.6	30.02	29.5	1.7	12.99	-39.9	0	22.7	25.4	32.0	0	21	0	0	0	38.4	36.5	0.0
2017 10/13 20:45	25.6	99.6	298.0	21.8	30.01	29.5	1.4	12.99	-39.9	0	22.6	25.4	32.2	0	21	0	0	0	38.2	36.3	0.0
2017 10/13 21:00	25.5	99.6	306.8	22.0	30.02	29.5	1.4	13.00	-40.0	0	22.6	25.4	31.5	0	21	0	0	0	38.4	36.2	0.0
2017 10/13 21:15	25.4	99.4	300.0	23.4	30.02	29.5	1.7	12.98	-40.0	0	22.6	25.4	31.5	0	21	0	0	0	38.1	36.2	0.0
2017 10/13 21:30	25.3	99.3	325.1	16.1	30.04	29.3	1.4	12.98	-40.1	0	22.5	25.4	32.0	0	21	0	0	0	38.2	36.1	0.0
2017 10/13 21:45	25.3	99.3	338.8	24.6	30.03	29.3	1.7	12.98	-40.0	0	22.5	25.4	31.3	0	21	0	0	0	38.1	36.0	0.0
2017 10/13 22:00	25.3	99.3	347.7	24.2	30.04	29.3	1.4	12.98	-40.0	0	22.6	24.5	30.7	0	21	0	0	0	37.8	35.9	0.0
2017 10/13 22:15	25.3	99.3	335.1	26.0	30.03	29.2	1.4	13.00	-40.0	0	22.7	23.6	30.9	0	21	0	0	0	37.8	35.8	0.0
2017 10/13 22:30	24.6	99.0	349.2	19.4	30.04	29.1	1.4	13.00	-40.1	0	22.8	23.6	30.5	0	21	0	0	0	37.2	35.7	0.0
2017 10/13 22:45	24.0	98.9	350.3	13.8	30.05	29.1	1.4	13.00	-39.9	0	22.8	22.7	30.4	0	21	0	0	0	37.5	35.7	0.0
2017 10/13 23:00	24.3	99.1	350.2	15.8	30.06	28.9	1.7	12.99	-39.8	0	22.6	22.7	28.5	0	21	0	0	0	37.0	35.4	0.0
2017 10/13 23:15	24.2	98.9	304.2	14.1	30.06	28.9	1.7	12.98	-39.9	0	22.6	22.7	29.7	0	21	0	0	0	36.8	35.3	0.0
2017 10/13 23:30	24.0	98.9	339.6	11.3	30.07	28.7	1.4	12.98	-39.9	0	22.8	22.7	28.9	0	21	0	0	0	36.9	35.2	0.0
2017 10/13 23:45	24.3	99.1	337.6	15.3	30.07	28.7	1.4	12.99	-40.1	0	22.3	21.8	30.2	0	21	0	0	0	36.2	35.1	0.0
2017 10/14 00:00	24.3	98.9	333.0	14.0	30.07	28.4	1.7	12.98	-40.0	0	22.7	21.8	27.8	0	21	0	0	0	36.2	35.0	0.0
2017 10/14 00:15	24.2	98.9	336.4	14.1	30.07	28.4	1.4	12.99	-40.0	0	22.4	21.8	26.4	0	21	0	0	0	36.3	34.8	0.0
2017 10/14 00:30	23.1	98.2	22.1	12.6	30.08	28.3	1.7	12.99	-40.0	0	22.4	21.8	25.4	0	21	0	0	0	36.2	34.8	0.0
2017 10/14 00:45	22.6	98.3	22.4	6.4	30.09	28.2	1.7	13.00	-39.9	0	22.6	20.9	22.8	0	21	0	0	0	36.0	34.7	0.0
2017 10/14 01:00	22.3	98.0	51.3	3.5	30.09	28.1	1.4	13.00	-40.0	0	22.4	20.9	21.3	0	21	0	0	0	35.7	34.4	0.0
2017 10/14 01:15	22.2	98.3	56.2	4.1	30.09	28.0	1.7	13.01	-40.0	0	22.6	20.0	19.6	0	21	0	0	0	35.3	34.3	0.0
2017 10/14 01:30	22.1	97.9	71.7	4.2	30.09	27.9	1.4	12.98	-39.9	0	22.4	20.0	19.0	0	21	0	0	0	35.0	34.2	0.0
2017 10/14 01:45	22.4	98.3	88.4	4.0	30.10	27.8	1.4	13.00	-40.0	0	22.4	19.1	17.7	0	21	0	0	0	34.3	34.0	0.0
2017 10/14 02:00	22.3	98.3	104.4	7.3	30.10	27.6	1.4	13.00	-39.9	0	22.3	19.1	16.1	0	21	0	0	0	34.3	33.9	0.0
2017 10/14 02:15	22.4	98.5	105.2	9.9	30.10	27.6	1.7	12.99	-40.0	0	22.0	19.1	14.9	0	21	0	0	0	34.2	33.7	0.0
2017 10/14 02:30	22.4	98.3	104.1	12.1	30.10	27.4	1.4	12.98	-40.0	0	22.1	20.0	13.5	0	21	0	0	0	34.0	33.6	0.0
2017 10/14 02:45	22.8	98.5	111.9	15.3	30.10	27.3	1.4	12.99	-39.9	0	22.1	20.0	13.5	0	21	0	0	0	33.5	33.4	0.0
2017 10/14 03:00	22.9	98.4	106.8	16.5	30.10	27.2	1.4	12.97	-40.0	0	22.2	20.9	12.8	0	21	0	0	0	33.3	33.3	0.0
2017 10/14 03:15	23.1	98.4	113.7	18.2	30.10	26.9	1.4	12.98	-39.9	0	22.3	21.8	11.6	0	21	0	0	0	33.2	33.2	0.0
2017 10/14 03:30	23.1	97.9	118.6	20.5	30.10	26.9	1.7	13.00	-40.0	0	22.1	21.8	11.0	0	21	0	0	0	33.3	33.1	0.0
2017 10/14 03:45	23.3	96.0	130.1	18.6	30.10	26.7	1.4	13.00	-40.0	0	22.3	21.8	11.6	0	21	0	0	0	33.0	32.9	0.0
2017 10/14 04:00	23.6	94.4	103.2	15.9	30.10	26.6	1.4	12.98	-39.9	0	22.2	21.8	11.0	0	21	0	0	0	32.7	32.7	0.0
2017 10/14 04:15	23.8	91.1	102.2	16.8	30.10	26.5	1.4	12.98	-40.0	0	22.1	21.8	10.2	0	21	0	0	0	32.7	32.6	0.0
2017 10/14 04:30	23.3	88.5	97.8	14.9	30.10	26.3	1.7	12.99	-40.0	0	22.0	21.8	10.9	0	21	0	0	0	32.6	32.5	0.0
2017 10/14 04:45	23.8	87.1	99.4	12.6	30.11	26.1	1.4	13.01	-40.0	0	22.1	20.9	9.8	0	21	0	0	0	32.6	32.4	0.0
2017 10/14 05:00	24.5	85.1	98.3	13.4	30.11	26.1	1.4	12.99	-39.9	0	22.0	20.9	9.2	0	21	0	0	0	32.3	32.3	0.0
2017 10/14 05:15	24.8	82.8	102.8	16.8	30.10	25.9	1.4	12.98	-39.9	0	21.9	20.9	9.6	0	21	0	0	0	32.1	32.2	0.0
2017 10/14 05:30	24.8	82.0	99.4	17.3	30.11	25.9	1.4	12.98	-40.0	0	21.9	20.9	10.8	0	21	0	0	0	32.1	32.1	0.0
2017 10/14 05:45	25.0	81.1	104.6	15.8	30.11	25.7	1.4	12.99	-40.1	0	21.7	20.9	10.4	0	21	0	0	0	32.0	32.0	0.0
2017 10/14 06:00	25.0	81.2	84.2	14.1	30.11	25.7	1.4	13.01	-40.1	0	21.9	20.9	10.1	0	21	0	0	0	31.7	31.8	0.0
2017 10/14 06:15	25.4	80.5	107.2	19.5	30.12	25.5	1.4	12.99	-40.1	0	22.0	20.9	10.4	0	21	0	0	0	31.6	31.7	0.0
2017 10/14 06:30	25.4	80.8	91.6	15.9	30.12	25.4	1.7	13.01	-39.9	0	21.7	21.8	11.3	0	21	0	0	0	31.4	31.6	0.0
2017 10/14 06:45	25.4	81.1	90.8	13.2	30.12	25.3	2.4	12.98	-40.0	0	21.7	21.8	10.7	0	21	0	0	0	31.4	31.5	0.0
2017 10/14 07:00	25.8	79.6	93.9	12.9	30.13	25.2	16.3	12.99	-39.9	0	21.7	21.8	10.0	0	21	0	0	0	31.1	31.5	0.0
2017 10/14 07:15	26.0	80.0	87.3	15.5	30.13	25.2	159.9	13.00	-40.1	0	21.6	21.8	11.0	0	21	0	0	0	31.2	31.4	0.0
2017 10/14 07:30	26.2	77.9	96.2	16.8	30.12	25.0	436.3	12.99	-40.0	0	21.7	21.8	9.9	0	21	0	0	0	30.9	31.3	0.0
2017 10/14 07:45	26.7	75.6	106.6	20.6	30.12	25.0	602.6	12.97	-39.9	0	21.5	22.7	9.8	0	21	0	0	0	30.7	31.2	0.0
2017 10/14 08:00	27.1	75.2	86.1	17.4	30.12	24.9	682.7	13.01	-40.0	0	21.7	22.7	10.7	0	21	0	0	0	30.7	31.2	0.0
2017 10/14 08:15	27.7	68.0	101.3	19.2	30.13	24.8	726.0	13.00	-40.1	0	21.5	23.6	12.8	0	21	0	0	0	30.6	31.1	0.0
2017 10/14 08:30	27.5	68.5	103.0	17.2	30.13	24.8	754.0	12.99	-40.1	0	21.5	24.5	12.9	0	21	0	0	0	30.5	31.1	0.0
2017 10/14 08:45	28.4	62.1	97.6	19.4	30.14	24.8	782.0	13.00	-40.0	0	21.6	25.4	14.6	0	21	0	0	0	30.5	31.1	0.0
2017 10/14 09:00	29.3	52.3	86.2	18.8	30.15	24.7	800.0	13.00	-39.9	0	21.4	26.3	16.9	0	21	0	0	0	30.6	31.2	0.0
2017 10/14 09:15	29.7	48.6	93.0	22.4	30.15	24.6	812.0	13.01	-40.1	0	21.2	27.2	20.1	0	21	0	0	0	30.3	31.2	0.0
2017 10/14 09:30	28.9	57.6	106.0	18.6	30.15	24.7	822.0	12.99	-40.1	0	21.2	28.1	22.3	0	21	0	0	0	30.0	31.6	0.0
2017 10/14 09:45	30.5	48.9	123.2	25.1	30.15	24.8	829.0	12.98	-40.1	0	20.9	29.9	27.1	0	21	0	0	0	30.2	32.9	0.0
2017 10/14 10:00	29.7	50.8	96.6	21.4	30.15	24.8	836.0	12.98	-39.9	0	20.4	32.6	32.2	0	21	0	0	0	31.5	33.7	0.0
2017 10/14 10:15	30.1	37.4	99.0	20.8	30.15	24.9	841.0	12.97	-40.0	0	20.0	34.4	33.5	0	21	0	0	0	33.2	34.3	0.0
2017 10/14 10:30	29.9	53.6	89.3	16.1	30.16	25.0	845.0	12.99	-39.9	0	20.2	34.4	33.9	0	21	0	0	0	34.7	35.0	0.0
2017 10/14 10:45	30.6	53.4	90.3	19.5	30.15	25.2	849.0	12.98	-40.1	0	20.2	34.4	35.0	0	21	0	0	0	36.2	36.6	0.0
2017 10/14 11:00	30.8	56.1	86.7	18.1	30.16	25.2	852.0	13.00	-40.1	0	20.7	32.6	35.8	0	21	0	0	0	38.0	38.1	0.0
2017 10/14 11:15	30.8	54.2	84.0	16.1	30.16	25.4	856.0	13.01	-39.9	0	20.7	33.5	36.3	0	21	0	0	0	39.6	39.5	0.0
2017 10/14 11:30	30.6	62.3	79.7	19.1	30.17	25.7	858.0	12.98	-39.9	0	20.9	32.6	37.0	0	22	0	0	0	40.6	40.5	0.0
2017 10/14 11:45	30.9	62.9	86.8	19.5	30.17	25.9	860.0	13.01	-39.9	0	21.0	32.6	37.2	0	25	0	0	0	42.0	41.5	0.0
2017 10/14 12:00	31.1	55.8	84.3	20.2	30.18	26.1	862.0	12.99	-40.0	0	21.1	32.6	38.1	0	29	0	0	0	43.1	42.5	0.0
2017 10/14 12:15	31.5	63.4	84.0	19.3	30.17	26.5	864.0	12.99	-40.0	0	21.1	31.7	38.4	0	35	0	0	0	44.2	43.4	0.0
2017 10/14 12:30	31.3	62.8	76.0	18.9	30.18	26.7	865.0	12.99	-39.9	0	21.1	32.6	38.1	0	40	0	0	0	45.0	44.0	0.0
2017 10/14 12:45	30.8	66.2	69.3	19.4	30.19	26.9	866.0	12.98	-40.1	0	20.2	36.2	38.8	0	46	0	0	0	45.9	44.7	0.0
2017 10/14 13:00	31.0	72.9	67.0	16.8	30.20	27.2	870.0	12.99	-40.0	0	20.0	37.1	39.6	0	51	0	0	0	46.7	45.3	0.0
2017 10/14 13:15	31.4	71.2	72.3	16.9	30.20	27.4	876.0	13.00	-40.1	0	20.2	36.2	39.9	0	55	0	0	0	47.5	45.8	0.0
2017 10/14 13:30	31.6	74.4	67.5	16.1	30.20	27.7	880.0	12.98	-40.0	0	20.0	37.1	40.7	0	59	0	0	0	47.9	46.1	0.0
2017 10/14 13:45	31.9	80.3	71.7	17.5	30.20	28.0	884.0	12.98	-40.0	0	19.8	38.0	41.1	0	63	0	0	0	48.6	46.5	0.0
2017 10/14 14:00	32.1	78.6	76.7	16.6	30.20	28.2	889.0	12.98	-40.0	0	20.0	37.1	41.6	0	67	0	0	0	49.0	46.7	0.0
2017 10/14 14:15	32.8	81.4	75.4	18.4	30.20	28.4	915.0	13.00	-40.0	0	19.5	39.8	42.5	0	69	0	0	0	49.4	46.9	0.0
2017 10/14 14:30	33.5	78.2	80.7	19.5	30.20	28.7	922.0	12.99	-39.9	0	19.8	38.0	43.2	0	71	0	0	0	49.6	47.1	0.0
2017 10/14 14:45	33.7	75.6	100.8	21.2	30.19	28.9	922.0	12.98	-40.0	0	19.6	38.0	43.1	0	73	0	0	0	49.8	47.2	0.0
2017 10/14 15:00	34.3	72.9	83.6	20.7	30.20	29.1	921.0	12.97	-40.0	0	19.1	38.9	43.8	0	74	0	0	0	50.3	47.4	0.0
2017 10/14 15:15	35.0	69.8	85.0	19.5	30.20	29.3	919.0	13.00	-39.9	0	19.3	38.9	44.1	0	76	0	0	0	50.4	47.4	0.0
2017 10/14 15:30	35.3	69.7	86.6	17.6	30.20	29.7	917.0	13.00	-39.9	0	19.1	39.8	45.1	0	77	0	0	0	50.6	47.4	0.0
2017 10/14 15:45	35.6	73.3	90.7	19.5	30.19	29.9	915.0	12.98	-39.9	0	19.0	39.8	45.0	0	79	0	0	0	50.7	47.1	0.0
2017 10/14 16:00	36.4	71.3	84.5	21.1	30.20	30.1	912.0	12.97	-40.0	0	19.3	38.9	44.1	0	81	0	0	0	51.0	46.9	0.0
2017 10/14 16:15	36.8	72.2	83.8	22.2	30.19	30.3	908.0	12.97	-40.1	0	19.3	38.9	41.8	0	83	0	0	0	51.0	46.6	0.0
2017 10/14 16:30	37.1	70.9	87.1	23.9	30.20	30.6	904.0	12.97	-39.9	0	19.5	38.0	41.3	0	85	0	0	0	51.0	46.1	0.0
2017 10/14 16:45	37.2	68.2	97.2	20.9	30.19	31.0	898.0	12.98	-39.9	0	19.3	38.0	40.8	0	86	0	0	0	51.0	45.7	0.0
2017 10/14 17:00	37.4	66.7	85.9	23.3	30.19	31.2	891.0	13.00	-40.0	0	19.4	36.2	40.2	0	88	0	0	0	50.6	45.1	0.0
2017 10/14 17:15	37.6	63.8	84.8	24.0	30.20	31.6	881.0	13.01	-40.0	0	19.3	37.1	39.8	0	89	0	0	0	50.4	44.5	0.0
2017 10/14 17:30	37.6	65.3	90.6	22.9	30.19	31.8	866.0	13.00	-40.0	0	19.6	35.3	38.6	0	90	0	0	0	50.0	44.1	0.0
2017 10/14 17:45	37.7	63.3	92.6	24.8	30.19	32.2	844.0	12.98	-40.0	0	19.6	34.4	38.1	0	91	0	0	0	49.3	43.5	0.0
2017 10/14 18:00	37.7	62.6	98.6	25.1	30.19	32.4	804.0	12.99	-40.0	0	19.7	33.5	37.1	0	92	0	0	0	48.4	43.0	0.0
2017 10/14 18:15	37.5	65.7	86.9	25.9	30.20	32.6	711.0	12.98	-40.0	0	19.6	33.5	37.0	0	93	0	0	0	52.1	42.4	0.0
2017 10/14 18:30	37.7	61.9	88.3	25.8	30.20	32.9	450.8	13.00	-40.0	0	19.5	33.5	37.7	0	93	0	0	0	53.7	42.1	0.0
2017 10/14 18:45	37.8	63.1	95.7	27.3	30.20	33.1	115.4	12.98	-40.0	0	19.3	33.5	37.6	0	93	0	0	0	56.1	41.6	0.0
2017 10/14 19:00	37.4	67.3	90.3	28.5	30.21	33.3	11.9	13.00	-40.1	0	19.3	33.5	37.8	0	93	0	0	0	58.4	41.2	0.0
2017 10/14 19:15	37.0	68.3	87.5	27.1	30.20	33.5	2.4	12.97	-40.1	0	19.2	33.5	37.6	0	94	0	0	0	61.0	40.7	0.0
2017 10/14 19:30	36.9	68.4	81.1	30.7	30.21	33.5	1.7	13.00	-39.9	0	19.3	33.5	37.3	0	94	0	0	0	62.3	40.5	0.0
2017 10/14 19:45	36.9	67.1	85.9	28.1	30.21	33.7	1.4	12.98	-40.0	0	19.2	33.5	37.6	0	94	0	0	0	64.5	40.2	0.0
2017 10/14 20:00	36.6	67.3	90.4	27.2	30.21	33.7	1.4	12.96	-40.1	0	19.3	32.6	37.2	0	94	0	0	0	65.8	39.8	0.0
2017 10/14 20:15	36.0	68.0	89.6	27.9	30.21	33.7	1.4	12.96	-39.9	0	19.1	32.6	37.0	0	94	0	0	0	66.9	39.6	0.0
2017 10/14 20:30	36.1	67.5	84.1	27.6	30.21	33.7	1.4	13.00	-40.0	0	18.9	32.6	36.4	0	94	0	0	0	67.6	39.4	0.0
2017 10/14 20:45	35.4	68.0	89.9	27.1	30.21	33.7	1.4	12.99	-40.0	0	19.0	32.6	36.3	0	94	0	0	0	68.4	39.2	0.0
2017 10/14 21:00	35.4	68.4	95.9	28.2	30.19	33.7	1.4	12.98	-39.9	0	18.9	32.6	36.6	0	95	0	0	0	68.6	39.0	0.0
2017 10/14 21:15	35.1	68.7	86.3	25.9	30.20	33.6	1.4	13.00	-39.9	0	18.9	31.7	36.6	0	95	0	0	0	69.4	38.8	0.0
2017 10/14 21:30	35.1	69.3	83.2	28.7	30.19	33.5	1.4	13.00	-40.1	0	19.0	31.7	36.2	0	95	0	0	0	70.0	38.7	0.0
2017 10/14 21:45	34.9	68.8	92.8	27.8	30.20	33.5	1.4	12.98	-40.0	0	19.0	31.7	36.0	0	95	0	0	0	70.8	38.6	0.0
2017 10/14 22:00	35.3	68.6	86.1	28.5	30.20	33.3	1.4	12.98	-39.9	0	18.6	31.7	35.9	0	95	0	0	0	71.3	38.5	0.0
2017 10/14 22:15	35.1	68.4	90.1	27.1	30.20	33.2	1.7	12.98	-40.0	0	18.7	30.8	36.0	0	95	0	0	0	71.9	38.4	0.0
2017 10/14 22:30	35.5	68.7	93.8	26.5	30.18	33.1	1.4	13.00	-39.9	0	18.7	31.7	35.7	0	95	0	0	0	71.9	38.2	0.0
2017 10/14 22:45	35.0	69.3	98.3	26.6	30.18	33.0	1.4	12.97	-39.9	0	18.8	31.7	35.8	0	95	0	0	0	72.2	38.1	0.0
2017 10/14 23:00	36.6	66.1	93.5	29.1	30.18	32.9	1.4	12.97	-40.1	0	18.5	31.7	35.7	0	95	0	0	0	72.3	38.0	0.0
2017 10/14 23:15	36.0	67.6	83.8	30.6	30.17	32.6	1.4	12.98	-40.1	0	18.7	30.8	35.3	0	95	0	0	0	72.5	37.9	0.0
2017 10/14 23:30	35.9	65.5	83.2	30.1	30.17	32.6	1.4	12.98	-39.9	0	18.6	31.7	35.2	0	95	0	0	0	72.3	37.8	0.0
2017 10/14 23:45	35.6	65.0	88.4	28.6	30.16	32.4	1.4	12.97	-40.0	0	18.5	30.8	35.1	0	95	0	0	0	72.1	37.8	0.0
2017 10/15 00:00	35.5	64.8	98.1	30.9	30.16	32.4	1.7	13.00	-39.9	0	18.5	30.8	35.1	0	95	0	0	0	71.2	37.7	0.0
2017 10/15 00:15	35.5	64.4	91.6	27.3	30.16	32.4	1.4	12.97	-40.0	0	18.6	31.7	35.1	0	95	0	0	0	70.4	37.7	0.0
2017 10/15 00:30	35.0	67.4	91.0	28.6	30.16	32.2	1.7	13.00	-39.9	0	18.7	31.7	35.8	0	95	0	0	0	69.8	37.6	0.0
2017 10/15 00:45	35.1	65.9	93.2	26.6	30.16	32.2	1.4	12.99	-40.1	0	18.7	32.6	36.2	0	95	0	0	0	69.1	37.6	0.0
2017 10/15 01:00	35.0	66.5	84.2	26.5	30.17	32.1	1.4	12.98	-40.1	0	18.7	32.6	36.0	0	95	0	0	0	68.3	37.5	0.0
2017 10/15 01:15	35.3	65.8	86.1	27.5	30.16	32.0	1.4	13.00	-40.0	0	18.5	32.6	35.9	0	95	0	0	0	67.6	37.5	0.0
2017 10/15 01:30	36.0	61.7	88.9	27.5	30.15	32.0	1.4	13.00	-39.9	0	18.7	33.5	36.1	0	95	0	0	0	66.9	37.5	0.0
2017 10/15 01:45	36.6	59.9	90.7	26.2	30.15	31.9	1.4	12.98	-39.9	0	18.5	33.5	36.8	0	95	0	0	0	65.8	37.4	0.0
2017 10/15 02:00	36.9	56.2	81.7	29.9	30.15	31.8	1.4	12.99	-39.9	0	18.3	32.6	36.6	0	95	0	0	0	65.4	37.2	0.0
2017 10/15 02:15	37.1	53.7	80.5	29.5	30.16	31.7	1.4	12.97	-39.9	0	18.5	32.6	36.1	0	95	0	0	0	65.0	37.2	0.0
2017 10/15 02:30	36.7	56.8	81.9	30.5	30.14	31.6	1.7	12.98	-40.1	0	18.5	31.7	35.9	0	95	0	0	0	65.4	37.2	0.0
2017 10/15 02:45	36.5	57.8	81.3	29.6	30.14	31.6	1.4	13.00	-40.0	0	18.5	31.7	35.7	0	95	0	0	0	66.3	37.1	0.0
2017 10/15 03:00	36.9	55.6	84.6	28.8	30.14	31.5	1.4	12.98	-40.0	0	18.3	32.6	35.4	0	95	0	0	0	67.0	37.1	0.0
2017 10/15 03:15	36.7	58.0	86.0	25.9	30.14	31.4	1.4	12.99	-40.1	0	18.5	30.8	35.2	0	95	0	0	0	67.8	37.0	0.0
2017 10/15 03:30	36.1	58.1	88.2	25.2	30.13	31.4	1.4	12.97	-40.0	0	18.4	31.7	35.1	0	95	0	0	0	68.3	37.0	0.0
2017 10/15 03:45	36.6	56.4	89.9	24.0	30.12	31.1	1.7	12.98	-39.9	0	18.7	31.7	35.4	0	95	0	0	0	69.0	36.9	0.0
2017 10/15 04:00	36.5	58.3	89.9	24.1	30.12	31.1	1.7	12.98	-39.8	0	18.4	32.6	35.4	0	95	0	0	0	69.5	36.9	0.0
2017 10/15 04:15	37.0	54.9	87.3	24.1	30.11	31.1	1.4	12.99	-39.9	0	18.3	32.6	35.8	0	95	0	0	0	69.5	36.8	0.0
2017 10/15 04:30	37.2	55.6	85.2	28.1	30.11	31.0	1.4	12.98	-40.1	0	18.3	33.5	36.0	0	95	0	0	0	69.8	36.8	0.0
2017 10/15 04:45	37.0	56.6	88.8	25.9	30.11	30.9	1.7	13.00	-40.0	0	18.4	32.6	35.9	0	95	0	0	0	70.1	36.7	0.0
2017 10/15 05:00	36.7	57.0	84.2	27.4	30.12	30.9	1.7	13.00	-39.9	0	18.3	31.7	36.1	0	95	0	0	0	69.8	36.7	0.0
2017 10/15 05:15	37.0	54.2	91.7	25.6	30.11	30.9	1.4	12.99	-40.0	0	18.1	32.6	36.1	0	95	0	0	0	69.1	36.6	0.0
2017 10/15 05:30	36.7	55.3	85.5	26.9	30.10	30.8	1.7	13.00	-39.9	0	18.2	32.6	36.2	0	95	0	0	0	68.6	36.6	0.0
2017 10/15 05:45	36.1	54.1	84.5	27.5	30.10	30.8	1.4	12.98	-40.1	0	18.2	32.6	36.2	0	95	0	0	0	68.0	36.6	0.0
2017 10/15 06:00	37.1	55.0	82.2	27.9	30.10	30.7	1.4	12.99	-40.0	0	18.4	31.7	36.0	0	95	0	0	0	67.2	36.6	0.0
2017 10/15 06:15	37.4	53.0	82.1	28.1	30.10	30.7	1.4	12.97	-39.9	0	18.3	32.6	36.1	0	95	0	0	0	66.7	36.5	0.0
2017 10/15 06:30	37.0	53.4	77.1	29.4	30.10	30.6	1.7	12.99	-39.9	0	18.3	31.7	35.7	0	95	0	0	0	67.6	36.5	0.0
2017 10/15 06:45	37.0	53.0	78.5	30.1	30.10	30.5	3.4	12.97	-40.1	0	18.2	30.8	34.9	0	95	0	0	0	68.6	36.5	0.0
2017 10/15 07:00	35.3	59.1	76.0	29.2	30.10	30.6	26.5	12.99	-40.0	0	18.1	30.8	34.4	0	95	0	0	0	69.4	36.3	0.0
2017 10/15 07:15	35.3	60.1	82.2	29.6	30.11	30.6	259.7	12.98	-40.0	0	18.2	29.9	34.4	0	95	0	0	0	70.3	36.3	0.0
2017 10/15 07:30	33.8	62.9	68.9	29.8	30.09	30.5	561.5	12.98	-39.9	0	18.3	29.9	34.2	0	95	0	0	0	71.1	36.3	0.0
2017 10/15 07:45	34.2	61.4	76.3	31.3	30.10	30.4	700.0	12.99	-40.0	0	18.2	30.8	34.6	0	95	0	0	0	71.0	36.2	0.0
2017 10/15 08:00	33.8	63.7	78.6	29.5	30.10	30.3	766.0	12.98	-40.1	0	18.2	30.8	34.6	0	95	0	0	0	70.5	36.2	0.0
2017 10/15 08:15	34.5	60.6	81.3	30.8	30.10	30.4	797.0	12.98	-40.1	0	18.1	31.7	35.0	0	95	0	0	0	69.5	36.2	0.0
2017 10/15 08:30	34.8	60.4	78.0	29.8	30.10	30.4	836.0	13.00	-40.0	0	18.0	32.6	35.8	0	95	0	0	0	69.0	36.3	0.0
2017 10/15 08:45	35.4	57.6	82.0	29.8	30.10	30.3	855.0	13.00	-40.1	0	18.1	32.6	36.2	0	95	0	0	0	68.1	36.3	0.0
2017 10/15 09:00	36.0	55.5	87.1	25.1	30.10	30.3	868.0	12.98	-39.9	0	18.1	33.5	36.8	0	95	0	0	0	67.5	36.6	0.0
2017 10/15 09:15	37.0	52.4	85.8	25.1	30.10	30.3	880.0	13.00	-39.9	0	18.1	33.5	37.2	0	95	0	0	0	66.7	36.9	0.0
2017 10/15 09:30	36.1	55.4	85.7	25.1	30.10	30.4	887.0	12.97	-40.0	0	18.1	34.4	37.5	0	95	0	0	0	66.4	37.4	0.0
2017 10/15 09:45	36.0	58.0	79.7	25.8	30.10	30.3	894.0	12.98	-40.0	0	17.9	35.3	37.9	0	95	0	0	0	65.9	38.5	0.0
2017 10/15 10:00	36.6	57.2	90.7	21.3	30.10	30.4	875.0	12.99	-39.9	0	18.0	34.4	38.1	0	95	0	0	0	65.5	39.3	0.0
2017 10/15 10:15	36.7	55.3	90.3	17.5	30.10	30.5	902.0	13.00	-40.0	0	17.6	37.1	38.8	0	95	0	0	0	65.0	39.8	0.0
2017 10/15 10:30	36.4	58.9	77.3	10.6	30.11	30.8	898.0	13.01	-40.0	0	17.5	38.0	39.5	0	95	0	0	0	64.8	40.4	0.0
2017 10/15 10:45	37.6	47.9	62.8	16.6	30.13	31.0	897.0	13.00	-39.9	0	17.7	37.1	39.9	0	95	0	0	0	64.5	41.2	0.0
2017 10/15 11:00	39.7	44.9	60.7	20.7	30.12	31.2	912.0	12.98	-40.0	0	17.9	38.0	40.6	0	95	0	0	0	63.7	41.7	0.0
2017 10/15 11:15	37.8	51.1	67.1	18.4	30.12	31.4	914.0	12.98	-39.9	0	17.9	38.9	42.2	0	97	0	0	0	63.3	42.6	0.0
2017 10/15 11:30	38.7	48.1	78.8	15.2	30.13	31.7	910.0	13.00	-40.1	0	18.0	38.9	42.7	0	98	0	0	0	62.4	43.5	0.0
2017 10/15 11:45	40.3	44.8	54.0	12.7	30.13	32.0	910.0	13.00	-40.0	0	17.7	39.8	43.1	0	101	0	0	0	62.4	44.2	0.0
2017 10/15 12:00	42.2	44.8	36.3	10.4	30.13	32.2	921.0	12.98	-40.0	0	17.9	40.7	44.0	0	105	0	0	0	62.5	44.8	0.0
2017 10/15 12:15	43.1	41.7	58.1	10.8	30.13	32.6	912.0	13.00	-40.0	0	17.8	40.7	44.8	0	109	0	0	0	62.9	45.6	0.0
2017 10/15 12:30	44.4	39.4	51.2	9.7	30.13	32.9	932.0	13.01	-40.1	0	17.9	42.5	45.9	0	111	0	0	0	62.9	46.0	0.0
2017 10/15 12:45	48.1	34.2	52.5	8.0	30.13	33.3	910.0	13.00	-40.1	0	17.6	42.5	45.3	0	115	0	0	0	63.3	46.9	0.0
2017 10/15 13:00	49.3	29.9	27.8	3.5	30.14	33.5	909.0	12.99	-39.9	0	17.4	43.4	45.6	0	119	0	0	0	63.8	47.5	0.0
2017 10/15 13:15	51.9	27.6	8.9	1.4	30.14	33.9	926.0	13.00	-40.0	0	16.7	47.0	46.2	0	121	0	0	0	64.2	48.0	0.0
2017 10/15 13:30	56.0	23.1	325.9	0.5	30.14	34.2	929.0	13.00	-40.0	0	16.5	47.9	47.6	0	125	0	0	0	64.7	48.5	0.0
2017 10/15 13:45	55.4	24.0	265.1	0.2	30.13	34.5	910.0	12.98	-39.9	0	16.4	47.9	47.7	0	128	0	0	0	65.0	49.3	0.0
2017 10/15 14:00	54.7	27.1	286.5	3.5	30.14	34.9	920.0	12.99	-39.9	0	15.9	50.6	48.9	0	131	0	0	0	65.0	49.6	0.0
2017 10/15 14:15	54.3	26.4	277.7	4.0	30.14	35.3	922.0	12.99	-39.9	0	15.9	50.6	49.9	0	133	0	0	0	65.1	50.2	0.0
2017 10/15 14:30	53.8	26.7	273.0	4.5	30.14	35.6	920.0	13.01	-40.0	0	15.8	52.4	50.7	0	134	0	0	0	65.6	50.6	0.0
2017 10/15 14:45	53.5	33.5	244.3	6.7	30.14	36.0	919.0	12.99	-40.0	0	15.6	53.3	50.7	0	135	0	0	0	65.6	51.2	0.0
2017 10/15 15:00	53.2	28.5	227.9	8.0	30.15	36.4	918.0	12.98	-40.0	0	15.7	52.4	51.3	0	137	0	0	0	65.8	51.6	0.0
2017 10/15 15:15	52.5	32.1	228.7	12.8	30.15	36.9	916.0	13.00	-39.9	0	15.2	53.3	52.4	0	138	0	0	0	66.0	51.9	0.0
2017 10/15 15:30	52.3	31.2	230.0	12.4	30.16	37.3	913.0	12.99	-40.1	0	14.8	56.0	51.2	0	139	0	0	0	66.0	52.1	0.0
2017 10/15 15:45	51.9	31.6	225.5	10.2	30.17	37.9	911.0	12.98	-40.0	0	14.8	56.0	50.2	0	141	0	0	0	66.0	52.2	0.0
2017 10/15 16:00	52.0	35.7	195.7	9.3	30.17	38.4	906.0	13.01	-40.1	0	14.8	56.9	48.1	0	141	0	0	0	66.3	52.1	0.0
2017 10/15 16:15	52.3	31.2	208.9	11.3	30.17	38.8	903.0	12.97	-40.1	0	15.4	55.1	44.3	0	143	0	0	0	66.3	51.9	0.0
2017 10/15 16:30	52.1	33.5	207.1	8.2	30.18	39.4	897.0	12.99	-39.9	0	15.3	54.2	43.9	0	143	0	0	0	66.3	51.6	0.0
2017 10/15 16:45	52.0	35.6	220.9	10.6	30.19	40.0	891.0	13.01	-40.0	0	15.2	53.3	43.3	0	145	0	0	0	65.9	51.2	0.0
2017 10/15 17:00	51.9	38.9	211.4	9.4	30.19	40.5	875.0	13.02	-40.1	0	14.9	50.6	42.2	0	145	0	0	0	65.4	50.6	0.0
2017 10/15 17:15	51.5	38.6	216.1	9.9	30.20	41.0	872.0	13.00	-40.0	0	14.9	51.5	40.8	0	146	0	0	0	64.8	50.0	0.0
2017 10/15 17:30	51.6	38.3	229.8	9.4	30.20	41.6	844.0	13.00	-40.0	0	15.4	48.8	40.2	0	147	0	0	0	64.4	49.5	0.0
2017 10/15 17:45	51.0	39.1	213.1	9.8	30.20	42.1	821.0	13.01	-40.0	0	15.4	47.9	39.1	0	147	0	0	0	63.6	48.8	0.0
2017 10/15 18:00	51.0	41.9	222.6	10.8	30.21	42.6	787.0	12.99	-39.9	0	15.4	47.0	38.4	0	149	0	0	0	62.7	48.2	0.0
2017 10/15 18:15	50.9	41.2	225.5	9.1	30.22	43.2	674.0	13.00	-39.9	0	15.4	47.0	37.5	0	149	0	0	0	61.8	47.6	0.0
2017 10/15 18:30	51.0	36.9	215.3	9.2	30.22	43.5	405.2	12.99	-40.0	0	15.3	46.1	36.6	0	149	0	0	0	61.0	47.2	0.0
2017 10/15 18:45	50.9	37.1	223.4	9.2	30.23	44.0	99.1	12.99	-40.0	0	15.2	46.1	36.2	0	150	0	0	0	60.1	46.6	0.0
2017 10/15 19:00	51.1	32.4	232.5	6.7	30.23	44.4	9.2	12.98	-40.1	0	15.5	44.3	35.5	0	150	0	0	0	59.2	46.1	0.0
2017 10/15 19:15	51.1	33.5	212.2	6.7	30.24	44.7	2.4	13.03	-39.9	0	16.1	44.3	34.9	0	151	0	0	0	58.4	45.7	0.0
2017 10/15 19:30	51.3	32.5	198.5	5.9	30.24	45.0	1.4	13.02	-40.0	0	15.2	46.1	34.0	0	151	0	0	0	57.8	45.3	0.0
2017 10/15 19:45	51.5	29.1	204.2	8.1	30.25	45.2	1.4	13.02	-40.0	0	15.4	45.2	33.4	0	151	0	0	0	57.0	44.9	0.0
2017 10/15 20:00	51.6	28.6	202.4	8.7	30.25	45.5	1.4	12.98	-40.0	0	15.5	46.1	32.7	0	151	0	0	0	56.2	44.4	0.0
2017 10/15 20:15	51.1	33.1	206.9	7.7	30.26	45.7	1.4	12.99	-40.0	0	15.2	46.1	33.2	0	151	0	0	0	55.5	44.1	0.0
2017 10/15 20:30	51.3	38.8	207.7	9.5	30.26	45.7	1.4	13.01	-39.9	0	15.7	45.2	33.0	0	151	0	0	0	54.9	43.9	0.0
2017 10/15 20:45	50.8	33.2	197.1	9.2	30.26	45.9	1.4	13.03	-40.0	0	15.2	45.2	32.1	0	151	0	0	0	54.2	43.5	0.0
2017 10/15 21:00	51.1	34.5	204.5	10.7	30.25	45.9	1.4	13.00	-40.0	0	15.0	46.1	31.2	0	151	0	0	0	53.8	43.2	0.0
2017 10/15 21:15	50.6	37.5	180.6	10.2	30.26	45.9	1.4	13.01	-40.0	0	15.1	47.0	31.4	0	151	0	0	0	53.1	43.0	0.0
2017 10/15 21:30	50.8	31.9	206.2	11.2	30.26	45.9	1.4	13.00	-40.0	0	15.3	46.1	31.1	0	151	0	0	0	52.5	42.7	0.0
2017 10/15 21:45	50.9	36.6	210.7	13.4	30.26	45.9	1.4	13.00	-40.1	0	15.4	47.0	30.8	0	151	0	0	0	52.0	42.4	0.0
2017 10/15 22:00	50.5	36.6	208.9	14.9	30.26	45.9	1.4	12.98	-40.0	0	15.3	47.9	30.4	0	151	0	0	0	51.4	42.2	0.0
2017 10/15 22:15	50.8	37.3	206.9	16.8	30.26	45.9	1.4	12.99	-39.9	0	15.1	47.9	29.9	0	151	0	0	0	51.2	42.0	0.0
2017 10/15 22:30	50.6	36.9	213.1	17.4	30.26	45.8	1.7	12.98	-40.0	0	14.9	47.9	29.5	0	151	0	0	0	50.6	41.9	0.0
2017 10/15 22:45	50.8	33.3	210.1	15.8	30.26	45.7	1.4	13.00	-40.0	0	15.2	47.9	29.0	0	151	0	0	0	50.2	41.6	0.0
2017 10/15 23:00	51.0	32.5	222.7	13.7	30.26	45.7	1.4	12.98	-40.0	0	15.2	47.9	29.6	0	151	0	0	0	50.0	41.4	0.0
2017 10/15 23:15	50.9	34.3	224.3	16.2	30.26	45.6	1.4	12.99	-40.0	0	14.7	47.9	27.5	0	151	0	0	0	49.7	41.2	0.0
2017 10/15 23:30	51.1	29.0	220.5	14.9	30.26	45.5	1.4	12.98	-40.1	0	15.1	48.8	27.3	0	151	0	0	0	49.2	41.1	0.0
2017 10/15 23:45	51.0	37.9	222.4	16.5	30.26	45.3	1.4	12.98	-40.0	0	15.2	47.9	26.8	0	151	0	0	0	48.8	40.8	0.0
2017 10/16 00:00	50.8	40.6	223.1	14.9	30.26	45.2	1.4	12.99	-39.9	0	15.0	48.8	26.2	0	151	0	0	0	48.0	40.7	0.0
2017 10/16 00:15	50.5	42.9	222.4	15.1	30.26	45.2	1.7	12.99	-40.1	0	14.6	47.9	25.8	0	151	0	0	0	47.6	40.5	0.0
2017 10/16 00:30	51.3	39.2	221.2	17.9	30.25	45.1	1.4	13.01	-40.0	0	14.9	47.0	25.9	0	151	0	0	0	47.4	40.4	0.0
2017 10/16 00:45	51.4	32.2	228.3	15.4	30.25	45.0	1.7	13.02	-39.9	0	15.1	47.0	25.3	0	151	0	0	0	47.0	40.3	0.0
2017 10/16 01:00	51.5	33.0	222.4	16.2	30.25	44.9	1.4	12.99	-40.0	0	15.0	47.9	25.8	0	151	0	0	0	46.8	40.2	0.0
2017 10/16 01:15	51.4	37.4	216.2	13.8	30.25	44.8	1.4	13.00	-40.0	0	14.7	47.9	25.4	0	151	0	0	0	46.5	39.9	0.0
2017 10/16 01:30	51.5	35.7	211.8	17.6	30.24	44.7	1.4	13.02	-39.9	0	15.1	47.9	25.3	0	151	0	0	0	46.2	39.8	0.0
2017 10/16 01:45	51.5	33.9	212.3	17.4	30.25	44.6	1.4	13.00	-39.9	0	15.3	48.8	25.5	0	151	0	0	0	45.8	39.7	0.0
2017 10/16 02:00	51.4	32.9	219.6	16.7	30.25	44.5	1.4	13.00	-40.0	0	14.8	48.8	24.8	0	151	0	0	0	45.8	39.6	0.0
2017 10/16 02:15	51.5	32.9	214.8	18.7	30.25	44.4	1.7	13.00	-40.1	0	14.6	48.8	24.3	0	151	0	0	0	45.3	39.5	0.0
2017 10/16 02:30	50.8	33.5	214.2	15.7	30.24	44.4	1.4	12.98	-40.0	0	14.8	48.8	24.3	0	151	0	0	0	45.2	39.4	0.0
2017 10/16 02:45	50.8	33.6	211.0	17.1	30.24	44.3	1.4	13.00	-40.0	0	14.6	49.7	24.0	0	151	0	0	0	45.0	39.3	0.0
2017 10/16 03:00	50.3	34.5	195.5	13.9	30.24	44.2	1.4	13.00	-40.0	0	14.6	48.8	24.1	0	151	0	0	0	44.9	39.2	0.0
2017 10/16 03:15	50.5	34.5	203.3	13.8	30.23	44.1	1.4	12.98	-40.0	0	15.0	48.8	24.0	0	151	0	0	0	44.5	39.0	0.0
2017 10/16 03:30	50.8	34.5	207.2	17.1	30.23	44.0	1.7	13.03	-40.0	0	14.7	48.8	23.9	0	151	0	0	0	44.3	38.9	0.0
2017 10/16 03:45	50.8	33.7	198.4	16.9	30.22	44.0	1.4	13.00	-39.9	0	14.6	48.8	23.0	0	151	0	0	0	44.1	38.8	0.0
2017 10/16 04:00	50.3	34.9	224.4	13.2	30.22	43.9	1.4	12.98	-39.9	0	14.5	48.8	23.3	0	151	0	0	0	43.8	38.7	0.0
2017 10/16 04:15	51.0	32.5	207.7	19.4	30.22	43.8	1.4	12.98	-39.9	0	14.4	48.8	23.4	0	151	0	0	0	43.7	38.7	0.0
2017 10/16 04:30	50.4	33.6	208.0	16.7	30.21	43.7	1.4	13.00	-40.0	0	14.8	48.8	22.6	0	151	0	0	0	43.5	38.6	0.0
2017 10/16 04:45	50.4	33.6	203.5	19.4	30.21	43.7	1.4	13.00	-40.0	0	14.8	48.8	22.7	0	151	0	0	0	43.4	38.5	0.0
2017 10/16 05:00	51.0	31.8	218.5	17.4	30.21	43.6	1.4	13.02	-40.1	0	14.6	47.9	22.6	0	151	0	0	0	43.3	38.4	0.0
2017 10/16 05:15	51.3	30.2	220.4	19.2	30.21	43.5	1.4	12.98	-40.0	0	14.3	47.9	22.3	0	151	0	0	0	43.1	38.2	0.0
2017 10/16 05:30	51.3	32.2	222.6	17.8	30.21	43.4	1.4	12.99	-40.0	0	14.2	47.9	23.5	0	151	0	0	0	42.7	38.2	0.0
2017 10/16 05:45	51.3	31.1	221.7	16.4	30.21	43.4	1.4	12.98	-40.0	0	14.5	47.9	24.1	0	151	0	0	0	42.6	38.1	0.0
2017 10/16 06:00	51.3	28.2	221.3	16.2	30.21	43.3	1.7	12.98	-39.9	0	14.9	47.9	23.7	0	151	0	0	0	42.4	38.0	0.0
2017 10/16 06:15	51.4	27.1	221.9	17.6	30.21	43.2	1.4	12.99	-40.0	0	14.0	47.9	23.4	0	151	0	0	0	42.2	37.9	0.0
2017 10/16 06:30	51.5	27.6	224.4	17.1	30.22	43.1	1.4	13.00	-40.0	0	14.2	47.9	23.9	0	151	0	0	0	42.2	37.8	0.0
2017 10/16 06:45	51.1	28.0	213.7	18.5	30.21	43.0	2.4	12.99	-39.9	0	14.3	48.8	24.9	0	151	0	0	0	42.0	37.8	0.0
2017 10/16 07:00	51.1	28.1	216.7	20.6	30.21	43.0	14.6	13.00	-40.1	0	14.1	48.8	24.0	0	151	0	0	0	41.7	37.7	0.0
2017 10/16 07:15	50.9	28.0	212.6	20.0	30.21	43.0	163.2	13.01	-40.0	0	13.9	48.8	24.3	0	151	0	0	0	41.6	37.6	0.0
2017 10/16 07:30	51.4	27.1	211.7	20.4	30.21	42.9	483.3	12.99	-40.1	0	14.4	48.8	23.3	0	151	0	0	0	41.4	37.6	0.0
2017 10/16 07:45	50.9	27.3	217.5	20.8	30.21	42.9	666.5	12.98	-40.1	0	14.5	49.7	23.7	0	151	0	0	0	41.3	37.5	0.0
2017 10/16 08:00	51.1	25.9	221.9	17.6	30.22	42.9	722.0	12.99	-40.1	0	14.4	48.8	25.1	0	151	0	0	0	41.0	37.5	0.0
2017 10/16 08:15	50.8	26.8	218.0	18.0	30.22	42.8	796.0	12.99	-39.9	0	14.3	48.8	24.1	0	151	0	0	0	41.1	37.4	0.0
2017 10/16 08:30	50.9	27.9	217.0	18.8	30.22	42.8	829.0	12.98	-40.0	0	14.3	49.7	25.0	0	151	0	0	0	41.2	37.2	0.0
2017 10/16 08:45	51.0	28.0	217.3	18.8	30.22	42.7	843.0	12.98	-40.0	0	14.4	49.7	25.9	0	151	0	0	0	41.2	37.4	0.0
2017 10/16 09:00	51.0	28.4	219.1	18.7	30.23	42.6	848.0	12.98	-40.0	0	14.6	49.7	27.2	0	151	0	0	0	41.3	37.5	0.0
2017 10/16 09:15	50.9	28.4	207.1	20.2	30.23	42.6	865.0	13.00	-39.9	0	14.1	50.6	29.6	0	151	0	0	0	40.7	37.8	0.0
2017 10/16 09:30	51.0	29.2	212.7	20.6	30.23	42.6	873.0	12.99	-40.0	0	14.0	51.5	31.5	0	151	0	0	0	41.4	38.5	0.0
2017 10/16 09:45	50.9	30.4	216.0	16.8	30.24	42.8	874.0	13.02	-40.0	0	14.4	51.5	36.2	0	151	0	0	0	43.1	39.8	0.0
2017 10/16 10:00	51.0	30.1	206.6	19.1	30.24	42.8	886.0	13.01	-40.0	0	14.2	52.4	46.8	0	151	0	0	0	44.8	40.8	0.0
2017 10/16 10:15	51.4	30.1	217.5	18.7	30.24	42.9	893.0	12.98	-40.0	0	14.1	54.2	50.3	0	151	0	0	0	46.6	41.6	0.0
2017 10/16 10:30	51.4	30.0	215.3	18.6	30.24	43.0	896.0	12.98	-40.0	0	13.9	55.1	50.4	0	151	0	0	0	48.2	42.6	0.0
2017 10/16 10:45	51.6	32.3	223.5	18.0	30.25	43.1	899.0	13.00	-40.0	0	14.1	54.2	53.3	0	153	0	0	0	50.3	44.3	0.0
2017 10/16 11:00	52.0	34.3	218.4	17.3	30.25	43.3	896.0	12.99	-40.0	0	14.2	54.2	53.2	0	154	0	0	0	52.4	45.9	0.0
2017 10/16 11:15	52.7	35.6	228.1	16.9	30.25	43.5	905.0	12.98	-40.0	0	14.1	55.1	54.1	0	155	0	0	0	54.3	47.5	0.0
2017 10/16 11:30	53.0	36.1	225.7	17.1	30.25	43.6	907.0	13.00	-39.9	0	13.9	55.1	54.0	0	157	0	0	0	55.8	48.5	0.0
2017 10/16 11:45	52.7	37.3	227.1	15.9	30.25	43.8	903.0	13.00	-40.0	0	13.9	55.1	54.7	0	159	0	0	0	57.4	49.8	0.0
2017 10/16 12:00	53.0	36.6	224.2	19.3	30.25	44.1	910.0	12.99	-39.9	0	14.1	55.1	55.8	0	161	0	0	0	58.8	51.0	0.0
2017 10/16 12:15	53.3	38.1	170.9	12.9	30.25	44.4	910.0	13.02	-40.1	0	13.8	56.0	55.7	0	162	0	0	0	60.1	52.0	0.0
2017 10/16 12:30	53.1	37.1	219.9	15.5	30.25	44.6	910.0	13.02	-40.0	0	13.8	56.0	56.2	0	163	0	0	0	60.9	52.7	0.0
2017 10/16 12:45	53.6	36.8	205.7	16.0	30.25	44.9	910.0	12.99	-40.0	0	13.0	56.9	56.2	0	164	0	0	0	61.9	53.5	0.0
2017 10/16 13:00	53.7	36.0	233.7	18.2	30.25	45.2	909.0	12.98	-39.9	0	13.0	58.7	57.0	0	165	0	0	0	62.9	54.3	0.0
2017 10/16 13:15	53.5	35.9	213.0	20.2	30.25	45.5	907.0	12.97	-40.0	0	12.9	58.7	56.9	0	165	0	0	0	63.8	55.0	0.0
2017 10/16 13:30	54.3	37.4	227.1	9.9	30.26	45.8	908.0	13.01	-40.0	0	12.4	59.6	57.1	0	165	0	0	0	64.4	55.5	0.0
2017 10/16 13:45	54.7	34.8	224.1	12.8	30.25	46.1	907.0	13.01	-40.0	0	12.3	60.5	57.3	0	166	0	0	0	64.9	55.9	0.0
2017 10/16 14:00	54.8	34.5	245.6	16.5	30.25	46.4	902.0	12.99	-40.0	0	12.4	61.4	57.3	0	167	0	0	0	65.4	56.4	0.0
2017 10/16 14:15	55.3	34.7	246.1	11.9	30.26	46.7	907.0	12.99	-40.0	0	12.4	60.5	55.1	0	167	0	0	0	65.8	56.7	0.0
2017 10/16 14:30	54.8	32.8	230.3	20.0	30.26	47.0	906.0	13.02	-39.9	0	12.0	60.5	57.6	0	167	0	0	0	66.0	56.8	0.0
2017 10/16 14:45	54.7	32.4	237.8	19.4	30.26	47.4	905.0	12.98	-40.1	0	11.6	61.4	57.1	0	167	0	0	0	66.3	56.9	0.0
2017 10/16 15:00	54.9	30.8	230.0	20.7	30.26	47.6	905.0	13.00	-40.0	0	11.7	61.4	57.4	0	167	0	0	0	66.5	57.0	0.0
2017 10/16 15:15	54.9	31.4	231.4	19.4	30.26	48.0	903.0	13.00	-40.1	0	11.8	60.5	57.0	0	167	0	0	0	66.6	57.0	0.0
2017 10/16 15:30	55.5	30.9	223.6	18.4	30.26	48.2	900.0	13.00	-40.0	0	11.7	59.6	57.7	0	167	0	0	0	66.7	57.0	0.0
2017 10/16 15:45	55.1	30.3	227.1	20.4	30.26	48.6	896.0	12.98	-39.9	0	11.5	59.6	58.9	0	167	0	0	0	66.8	56.9	0.0
2017 10/16 16:00	55.0	33.6	240.8	20.4	30.26	48.9	892.0	12.99	-40.0	0	10.9	59.6	56.2	0	167	0	0	0	66.8	56.6	0.0
2017 10/16 16:15	54.9	33.8	224.8	21.4	30.26	49.2	887.0	13.01	-39.9	0	11.3	58.7	54.7	0	167	0	0	0	66.8	56.2	0.0
2017 10/16 16:30	55.0	34.6	232.3	16.7	30.27	49.7	881.0	13.01	-40.0	0	11.1	57.8	53.9	0	167	0	0	0	66.7	55.8	0.0
2017 10/16 16:45	54.9	33.5	225.3	17.5	30.27	49.9	874.0	13.02	-40.0	0	11.2	57.8	52.5	0	167	0	0	0	66.5	55.2	0.0
2017 10/16 17:00	54.9	35.3	226.4	14.8	30.27	50.3	865.0	13.01	-40.1	0	11.3	56.0	50.6	0	167	0	0	0	66.1	54.6	0.0
2017 10/16 17:15	54.5	34.9	221.8	14.4	30.27	50.5	852.0	13.01	-40.0	0	10.9	56.0	46.8	0	167	0	0	0	65.7	53.9	0.0
2017 10/16 17:30	54.4	36.4	227.8	12.9	30.27	50.9	834.0	12.99	-40.0	0	11.3	54.2	43.5	0	167	0	0	0	65.4	53.2	0.0
2017 10/16 17:45	53.8	38.5	233.6	16.6	30.27	51.1	806.0	13.01	-40.0	0	10.7	52.4	41.7	0	167	0	0	0	64.5	52.5	0.0
2017 10/16 18:00	53.3	42.5	237.2	14.5	30.27	51.6	755.0	12.99	-39.9	0	10.6	51.5	40.6	0	167	0	0	0	63.2	51.7	0.0
2017 10/16 18:15	52.8	44.5	229.9	15.5	30.27	51.8	627.0	13.00	-40.0	0	10.3	50.6	39.4	0	167	0	0	0	62.2	51.1	0.0
2017 10/16 18:30	52.3	46.3	247.7	14.9	30.27	52.0	345.7	12.99	-40.1	0	10.6	49.7	39.0	0	167	0	0	0	61.5	50.5	0.0
2017 10/16 18:45	52.0	47.9	229.5	15.2	30.27	52.2	70.2	13.01	-40.0	0	10.5	48.8	38.0	0	167	0	0	0	60.5	49.8	0.0
2017 10/16 19:00	52.0	45.9	230.2	17.6	30.27	52.4	5.8	13.00	-40.0	0	10.6	48.8	37.3	0	167	0	0	0	59.5	49.3	0.0
2017 10/16 19:15	52.1	45.8	231.3	17.1	30.28	52.5	2.0	13.02	-40.0	0	10.4	48.8	36.9	0	167	0	0	0	58.6	48.7	0.0
2017 10/16 19:30	52.2	45.9	230.5	16.6	30.27	52.6	1.4	13.02	-39.9	0	10.4	48.8	36.4	0	167	0	0	0	58.0	48.4	0.0
2017 10/16 19:45	52.1	42.4	219.5	19.9	30.27	52.6	1.4	13.01	-40.0	0	10.2	49.7	36.2	0	167	0	0	0	57.3	47.9	0.0
2017 10/16 20:00	52.3	40.0	219.8	17.8	30.27	52.7	1.4	13.02	-40.0	0	10.8	48.8	35.8	0	167	0	0	0	56.6	47.5	0.0
2017 10/16 20:15	52.5	41.9	220.2	17.4	30.27	52.6	1.7	12.99	-40.0	0	10.3	49.7	35.9	0	167	0	0	0	55.9	47.0	0.0
2017 10/16 20:30	52.2	43.5	216.9	18.2	30.28	52.6	1.4	13.00	-40.0	0	10.5	49.7	35.9	0	167	0	0	0	55.5	46.8	0.0
2017 10/16 20:45	52.5	46.4	204.4	20.2	30.26	52.6	1.4	13.01	-39.9	0	10.4	50.6	34.6	0	167	0	0	0	54.9	46.4	0.0
2017 10/16 21:00	52.5	46.3	226.4	21.1	30.26	52.4	1.4	13.00	-40.0	0	10.3	50.6	34.5	0	167	0	0	0	54.3	46.1	0.0
2017 10/16 21:15	51.7	48.6	206.6	16.6	30.25	52.4	1.4	13.00	-40.0	0	10.2	51.5	34.5	0	167	0	0	0	54.0	45.8	0.0
2017 10/16 21:30	52.2	45.1	199.6	15.7	30.25	52.2	1.4	12.99	-40.0	0	10.2	50.6	34.3	0	167	0	0	0	53.5	45.6	0.0
2017 10/16 21:45	52.6	41.7	172.4	15.9	30.24	52.1	1.4	12.99	-40.0	0	10.3	50.6	34.0	0	167	0	0	0	53.1	45.2	0.0
2017 10/16 22:00	52.7	39.0	186.2	17.8	30.24	52.0	1.4	12.99	-40.0	0	10.3	52.4	32.7	0	167	0	0	0	52.5	45.0	0.0
2017 10/16 22:15	52.5	39.8	195.3	16.2	30.24	51.8	1.4	12.99	-40.1	0	9.8	52.4	32.5	0	167	0	0	0	52.1	44.7	0.0
2017 10/16 22:30	52.2	40.7	195.4	15.5	30.24	51.7	1.4	13.00	-40.0	0	10.3	51.5	32.6	0	167	0	0	0	51.9	44.5	0.0
2017 10/16 22:45	53.0	40.0	210.2	20.0	30.25	51.6	1.4	13.00	-40.0	0	10.4	49.7	32.8	0	167	0	0	0	51.2	44.3	0.0
2017 10/16 23:00	53.1	42.8	214.2	18.6	30.23	51.4	1.7	12.99	-40.2	0	9.8	49.7	31.7	0	167	0	0	0	50.7	44.1	0.0
2017 10/16 23:15	52.5	43.9	219.2	14.5	30.22	51.1	1.7	12.99	-40.0	0	10.4	49.7	30.7	0	167	0	0	0	50.3	43.9	0.0
2017 10/16 23:30	53.2	40.9	217.5	18.9	30.22	51.1	1.4	13.00	-40.1	0	10.4	47.9	30.5	0	167	0	0	0	50.1	43.7	0.0
2017 10/16 23:45	53.2	39.1	213.2	17.3	30.22	50.9	1.4	13.00	-40.0	0	10.4	47.9	30.2	0	167	0	0	0	49.6	43.5	0.0
2017 10/17 00:00	53.3	36.2	226.0	16.1	30.21	50.7	1.4	13.00	-40.0	0	10.3	47.9	29.5	0	167	0	0	0	49.3	43.3	0.0
2017 10/17 00:15	53.6	34.3	205.2	21.1	30.21	50.6	1.4	12.99	-40.0	0	10.4	47.9	29.5	0	167	0	0	0	48.8	43.1	0.0
2017 10/17 00:30	53.6	35.5	219.9	23.1	30.20	50.5	1.4	12.99	-40.0	0	10.4	47.9	29.4	0	167	0	0	0	48.6	43.0	0.0
2017 10/17 00:45	53.2	36.0	216.5	24.6	30.20	50.3	1.4	13.01	-40.1	0	10.1	48.8	29.4	0	167	0	0	0	48.3	42.9	0.0
2017 10/17 01:00	53.0	37.2	191.0	22.0	30.19	50.1	1.4	13.00	-40.0	0	9.6	50.6	29.0	0	167	0	0	0	47.9	42.6	0.0
2017 10/17 01:15	52.6	38.1	234.8	22.5	30.18	49.9	1.4	13.01	-39.9	0	11.0	50.6	28.6	0	167	0	0	0	47.6	42.5	0.0
2017 10/17 01:30	53.0	36.8	217.9	27.2	30.17	49.9	1.4	13.01	-40.1	0	10.0	49.7	28.1	0	167	0	0	0	47.5	42.4	0.0
2017 10/17 01:45	53.1	37.7	219.0	25.9	30.17	49.7	1.4	12.98	-39.9	0	11.0	49.7	28.8	0	167	0	0	0	47.1	42.2	0.0
2017 10/17 02:00	52.7	37.9	214.8	24.5	30.17	49.6	1.4	13.01	-39.9	0	10.2	49.7	39.1	0	167	0	0	0	46.9	42.1	0.0
2017 10/17 02:15	52.3	38.8	228.0	25.3	30.16	49.4	1.4	13.01	-40.0	0	10.3	48.8	46.3	0	167	0	0	0	47.0	42.0	0.0
2017 10/17 02:30	51.6	41.0	225.1	26.1	30.16	49.3	1.4	13.01	-40.1	0	10.6	48.8	45.2	0	167	0	0	0	46.9	41.9	0.0
2017 10/17 02:45	50.8	41.7	241.7	26.5	30.15	49.3	1.4	12.99	-39.9	0	10.2	47.9	46.2	0	167	0	0	0	46.7	41.7	0.0
2017 10/17 03:00	50.5	42.1	226.9	27.4	30.14	49.0	1.4	13.00	-40.0	0	10.4	47.9	47.1	0	167	0	0	0	46.7	41.6	0.0
2017 10/17 03:15	50.4	42.8	207.9	27.8	30.13	48.9	1.4	13.00	-40.0	0	10.3	48.8	49.9	0	167	0	0	0	46.5	41.6	0.0
2017 10/17 03:30	50.3	43.5	222.8	29.9	30.13	48.8	1.4	12.98	-40.1	0	10.3	47.9	49.3	0	167	0	0	0	46.4	41.6	0.0
2017 10/17 03:45	49.5	45.2	212.5	28.5	30.12	48.7	1.4	13.00	-39.9	0	10.2	47.9	47.6	0	167	0	0	0	46.1	41.5	0.0
2017 10/17 04:00	49.8	42.4	241.5	28.5	30.12	48.6	1.4	12.99	-39.9	0	10.2	47.0	45.4	0	167	0	0	0	46.0	41.5	0.0
2017 10/17 04:15	49.8	41.5	232.3	29.1	30.11	48.4	1.4	13.00	-40.0	0	10.7	47.0	44.0	0	167	0	0	0	46.1	41.4	0.0
2017 10/17 04:30	49.9	42.2	230.6	30.9	30.11	48.3	1.7	13.01	-40.0	0	10.6	47.0	43.2	0	167	0	0	0	45.8	41.4	0.0
2017 10/17 04:45	49.7	43.2	234.4	30.9	30.10	48.2	1.4	12.98	-40.1	0	10.3	47.9	43.0	0	167	0	0	0	45.7	41.4	0.0
2017 10/17 05:00	49.0	42.0	246.3	30.6	30.10	48.0	1.4	12.99	-40.0	0	10.3	47.9	43.0	0	167	0	0	0	45.7	41.3	0.0
2017 10/17 05:15	49.0	41.5	239.2	32.5	30.10	47.8	1.4	12.99	-40.0	0	10.1	48.8	46.2	0	167	0	0	0	45.6	41.3	0.0
2017 10/17 05:30	48.8	42.2	221.2	31.9	30.09	47.8	1.4	12.99	-40.0	0	10.1	47.9	47.6	0	167	0	0	0	45.6	41.2	0.0
2017 10/17 05:45	48.1	45.3	245.3	30.9	30.09	47.6	1.4	12.98	-40.1	0	10.1	47.9	48.4	0	167	0	0	0	45.5	41.2	0.0
2017 10/17 06:00	47.7	48.3	203.2	30.9	30.08	47.5	1.4	13.00	-39.9	0	10.1	47.0	47.9	0	167	0	0	0	45.5	41.3	0.0
2017 10/17 06:15	47.2	49.3	217.6	35.2	30.08	47.4	1.4	13.00	-39.9	0	10.0	47.0	47.9	0	167	0	0	0	45.3	41.3	0.0
2017 10/17 06:30	46.6	54.2	275.1	31.6	30.08	47.2	1.4	12.98	-39.9	0	10.0	46.1	47.5	0	167	0	0	0	45.5	41.3	0.0
2017 10/17 06:45	46.1	59.0	219.0	29.5	30.08	47.2	2.0	13.00	-40.0	0	9.9	46.1	48.5	0	167	0	0	0	45.3	41.3	0.0
2017 10/17 07:00	45.6	61.9	222.3	33.1	30.07	47.0	7.5	13.01	-40.1	0	9.7	45.2	47.7	0	167	0	0	0	45.2	41.4	0.0
2017 10/17 07:15	44.9	61.4	236.0	30.4	30.07	46.8	95.7	12.98	-40.0	0	9.8	44.3	47.7	0	167	0	0	0	45.2	41.5	0.0
2017 10/17 07:30	44.7	59.5	238.3	29.6	30.07	46.7	330.8	12.99	-40.0	0	9.9	44.3	47.5	0	167	0	0	0	45.3	41.5	0.0
2017 10/17 07:45	44.0	59.4	217.6	30.5	30.07	46.6	518.5	13.00	-40.1	0	9.6	44.3	47.2	0	167	0	0	0	45.3	41.6	0.0
2017 10/17 08:00	44.0	61.1	219.7	34.2	30.07	46.4	643.4	13.01	-40.0	0	9.8	44.3	47.1	0	167	0	0	0	45.2	41.7	0.0
2017 10/17 08:15	43.6	64.3	227.9	28.7	30.09	46.3	712.0	12.98	-40.1	0	9.6	43.4	47.2	0	167	0	0	0	45.2	41.7	0.0
2017 10/17 08:30	42.5	67.1	218.1	33.6	30.07	46.1	756.0	13.00	-39.9	0	9.7	43.4	46.9	0	167	0	0	0	45.2	41.7	0.0
2017 10/17 08:45	42.5	67.9	243.9	31.8	30.08	46.0	793.0	12.98	-40.0	0	9.6	43.4	46.3	0	167	0	0	0	45.3	41.9	0.0
2017 10/17 09:00	42.8	64.2	251.9	32.8	30.08	45.8	796.0	12.98	-40.1	0	9.2	44.3	47.2	0	167	0	0	0	45.3	42.0	0.0
2017 10/17 09:15	43.2	58.9	266.2	34.4	30.09	45.7	805.0	13.00	-40.0	0	9.4	44.3	47.1	0	167	0	0	0	45.6	42.2	0.0
2017 10/17 09:30	43.3	56.8	241.1	37.4	30.08	45.6	857.0	13.00	-40.1	0	9.1	45.2	47.8	0	167	0	0	0	46.0	42.4	0.0
2017 10/17 09:45	43.7	58.0	250.8	32.9	30.09	45.5	863.0	12.98	-40.1	0	9.4	45.2	48.5	0	167	0	0	0	46.7	43.3	0.0
2017 10/17 10:00	43.4	59.9	233.4	36.0	30.08	45.3	867.0	12.98	-40.1	0	9.3	46.1	48.3	0	167	0	0	0	47.8	44.1	0.0
2017 10/17 10:15	43.6	60.6	209.2	31.8	30.09	45.3	871.0	12.99	-40.0	0	9.1	47.0	48.9	0	167	0	0	0	49.0	44.9	0.0
2017 10/17 10:30	43.7	61.8	225.7	35.4	30.09	45.1	875.0	12.99	-40.1	0	9.1	47.0	49.0	0	167	0	0	0	50.1	45.8	0.0
2017 10/17 10:45	44.0	58.6	238.9	29.5	30.10	45.0	878.0	12.97	-39.9	0	9.3	46.1	49.7	0	167	0	0	0	51.3	47.1	0.0
2017 10/17 11:00	44.0	58.2	251.2	33.1	30.09	45.0	882.0	12.98	-40.0	0	9.2	46.1	49.8	0	167	0	0	0	52.7	48.5	0.0
2017 10/17 11:15	44.4	57.3	233.0	32.0	30.09	45.0	884.0	12.99	-40.0	0	9.1	47.0	49.9	0	167	0	0	0	53.8	49.6	0.0
2017 10/17 11:30	44.5	57.0	264.7	27.6	30.09	45.1	890.0	12.98	-40.0	0	9.1	47.0	50.6	0	167	0	0	0	54.6	50.4	0.0
2017 10/17 11:45	44.5	53.5	206.9	35.2	30.10	45.1	894.0	13.00	-40.0	0	9.1	47.0	51.0	0	167	0	0	0	55.6	51.3	0.0
2017 10/17 12:00	44.9	53.3	231.2	30.8	30.09	45.1	890.0	12.98	-40.0	0	8.7	47.9	51.2	0	167	0	0	0	56.6	52.2	0.0
2017 10/17 12:15	45.3	52.5	230.9	24.1	30.10	45.3	889.0	12.99	-39.9	0	8.8	47.9	51.5	0	167	0	0	0	57.6	53.0	0.0
2017 10/17 12:30	45.4	51.0	237.1	20.5	30.10	45.3	880.0	12.99	-40.1	0	8.9	48.8	51.7	0	167	0	0	0	58.2	53.4	0.0
2017 10/17 12:45	45.4	49.6	237.4	29.6	30.09	45.4	885.0	12.98	-40.1	0	9.0	48.8	52.1	0	167	0	0	0	59.0	54.1	0.0
2017 10/17 13:00	45.4	46.9	227.3	32.9	30.09	45.5	861.0	12.98	-40.0	0	8.5	49.7	51.6	0	167	0	0	0	59.5	54.6	0.0
2017 10/17 13:15	46.1	39.2	235.7	26.2	30.09	45.5	887.0	12.98	-40.0	0	7.7	51.5	52.5	0	167	0	0	0	60.0	54.7	0.0
2017 10/17 13:30	46.0	42.4	254.6	29.9	30.09	45.6	883.0	12.98	-40.0	0	7.8	51.5	52.5	0	167	0	0	0	60.1	54.8	0.0
2017 10/17 13:45	46.1	40.3	221.7	31.9	30.09	45.7	884.0	13.00	-40.0	0	7.6	52.4	52.9	0	167	0	0	0	60.3	54.9	0.0
2017 10/17 14:00	46.2	42.1	221.0	32.0	30.10	45.7	879.0	12.98	-40.0	0	7.6	52.4	53.2	0	167	0	0	0	60.6	55.0	0.0
2017 10/17 14:15	46.2	43.0	244.6	29.4	30.10	45.9	880.0	13.00	-40.0	0	7.6	50.6	53.1	0	167	0	0	0	60.7	55.1	0.0
2017 10/17 14:30	46.1	47.9	218.5	32.6	30.08	45.9	882.0	12.98	-40.0	0	7.6	51.5	53.4	0	167	0	0	0	60.9	55.1	0.0
2017 10/17 14:45	46.0	50.5	242.2	32.4	30.08	46.1	880.0	12.98	-40.0	0	7.4	50.6	53.2	0	167	0	0	0	61.1	55.2	0.0
2017 10/17 15:00	46.4	52.4	262.1	24.4	30.09	46.1	879.0	13.00	-39.9	0	7.6	51.5	53.4	0	167	0	0	0	61.3	55.4	0.0
2017 10/17 15:15	46.9	55.3	270.0	27.1	30.09	46.3	884.0	12.98	-40.1	0	7.4	52.4	54.0	0	167	0	0	0	61.4	55.4	0.0
2017 10/17 15:30	46.1	59.6	306.6	21.1	30.09	46.4	852.0	13.02	-40.1	0	7.7	48.8	53.2	0	167	0	0	0	61.4	55.2	0.0
2017 10/17 15:45	45.4	62.8	257.3	27.4	30.09	46.5	837.0	13.00	-40.1	0	7.1	47.9	52.1	0	167	0	0	0	61.3	54.8	0.0
2017 10/17 16:00	44.9	64.1	238.8	20.5	30.09	46.7	829.0	12.98	-40.1	0	7.4	47.9	51.5	0	167	0	0	0	61.2	54.2	0.0
2017 10/17 16:15	44.9	68.5	263.2	24.9	30.09	46.8	793.0	12.98	-39.9	0	7.2	47.0	50.8	0	167	0	0	0	61.1	53.7	0.0
2017 10/17 16:30	44.4	72.8	252.0	18.2	30.10	47.0	746.0	13.00	-40.1	0	7.2	46.1	50.4	0	167	0	0	0	60.9	53.3	0.0
2017 10/17 16:45	44.0	74.4	242.5	20.6	30.10	47.2	679.3	13.00	-40.1	0	7.2	45.2	49.5	0	167	0	0	0	60.6	52.9	0.0
2017 10/17 17:00	43.7	75.1	279.6	15.2	30.10	47.3	651.5	13.00	-40.1	0	7.3	44.3	49.0	0	167	0	0	0	60.2	52.4	0.0
2017 10/17 17:15	43.3	73.0	238.0	19.1	30.10	47.4	605.4	13.00	-40.0	0	7.3	43.4	47.9	0	167	0	0	0	59.5	52.0	0.0
2017 10/17 17:30	43.1	77.8	257.6	24.6	30.09	47.4	568.0	13.01	-39.9	0	7.4	43.4	47.7	0	167	0	0	0	59.0	51.6	0.0
2017 10/17 17:45	42.8	82.6	267.7	26.6	30.09	47.5	446.9	13.00	-40.0	0	7.4	42.5	45.8	0	167	0	0	0	58.5	51.3	0.0
2017 10/17 18:00	42.5	85.9	256.4	19.5	30.09	47.5	294.9	13.00	-40.0	0	7.4	42.5	46.1	0	167	0	0	0	57.9	51.0	0.0
2017 10/17 18:15	42.3	84.4	242.3	24.9	30.10	47.6	197.8	12.98	-40.0	0	7.0	42.5	46.1	0	167	0	0	0	57.5	50.6	0.0
2017 10/17 18:30	42.1	87.5	224.9	22.4	30.09	47.6	41.4	13.00	-40.0	0	6.9	42.5	46.0	0	167	0	0	0	57.2	50.4	0.0
2017 10/17 18:45	41.7	82.2	245.9	22.6	30.10	47.5	4.8	13.01	-40.2	0	7.1	41.6	45.9	0	167	0	0	0	56.8	50.2	0.0
2017 10/17 19:00	41.6	82.9	273.4	26.1	30.09	47.4	1.7	13.00	-39.9	0	6.7	41.6	45.4	0	167	0	0	0	56.4	49.8	0.0
2017 10/17 19:15	41.6	83.4	238.4	23.5	30.09	47.4	1.4	12.98	-40.1	0	6.7	41.6	46.3	0	167	0	0	0	56.1	49.6	0.0
2017 10/17 19:30	40.9	92.0	231.9	24.2	30.10	47.4	1.4	12.98	-40.1	0	7.1	41.6	45.7	0	167	0	0	0	55.8	49.4	0.0
2017 10/17 19:45	41.0	93.6	223.8	23.2	30.10	47.2	1.4	13.00	-40.0	0	7.0	40.7	44.7	0	167	0	0	0	55.4	49.2	0.0
2017 10/17 20:00	40.9	92.8	214.4	25.2	30.10	47.1	1.4	13.01	-40.0	0	7.2	40.7	44.1	0	167	0	0	0	55.1	48.9	0.0
2017 10/17 20:15	41.4	87.6	198.3	26.9	30.09	47.0	1.4	12.99	-40.0	0	7.1	40.7	45.7	0	167	0	0	0	54.8	48.7	0.0
2017 10/17 20:30	41.1	90.7	219.5	27.5	30.09	46.8	1.4	13.01	-39.9	0	7.1	40.7	46.1	0	167	0	0	0	54.5	48.6	0.0
2017 10/17 20:45	41.1	91.7	214.3	32.4	30.08	46.7	1.4	12.99	-39.9	0	6.9	40.7	46.8	0	167	0	0	0	54.1	48.3	0.0
2017 10/17 21:00	42.3	83.3	236.3	28.6	30.08	46.5	1.4	12.98	-40.1	0	6.8	40.7	46.9	0	167	0	0	0	53.8	48.2	0.0
2017 10/17 21:15	42.0	81.0	207.0	28.6	30.08	46.4	1.4	13.00	-39.9	0	7.1	40.7	46.6	0	167	0	0	0	53.7	47.9	0.0
2017 10/17 21:30	42.6	76.2	212.1	31.8	30.07	46.3	1.4	12.98	-40.0	0	7.3	40.7	46.5	0	167	0	0	0	53.4	47.9	0.0
2017 10/17 21:45	42.8	75.0	231.7	31.4	30.08	46.1	1.7	12.99	-40.0	0	7.0	40.7	45.0	0	167	0	0	0	53.3	47.8	0.0
2017 10/17 22:00	42.3	75.7	203.2	25.8	30.07	45.9	1.4	13.00	-40.1	0	6.9	40.7	46.9	0	167	0	0	0	53.0	47.6	0.0
2017 10/17 22:15	43.0	70.9	204.6	22.6	30.08	45.7	1.4	12.99	-40.1	0	7.2	40.7	46.6	0	167	0	0	0	52.8	47.4	0.0
2017 10/17 22:30	43.2	69.2	195.5	24.6	30.06	45.5	1.4	12.98	-40.0	0	7.0	41.6	46.8	0	167	0	0	0	52.7	47.4	0.0
2017 10/17 22:45	43.6	68.2	222.3	21.8	30.09	45.4	1.7	13.00	-40.0	0	6.9	41.6	46.7	0	167	0	0	0	52.3	47.1	0.0
2017 10/17 23:00	43.4	67.7	214.7	19.8	30.07	45.2	1.4	13.01	-40.0	0	7.0	41.6	46.0	0	167	0	0	0	52.1	46.9	0.0
2017 10/17 23:15	43.4	66.8	156.8	20.8	30.08	45.0	1.4	13.01	-40.0	0	6.7	41.6	44.9	0	167	0	0	0	51.7	46.8	0.0
2017 10/17 23:30	43.8	66.8	202.4	26.2	30.07	44.9	1.4	13.00	-40.1	0	7.2	41.6	44.4	0	167	0	0	0	51.6	46.7	0.0
2017 10/17 23:45	43.7	68.0	197.8	21.1	30.07	44.7	1.4	12.99	-40.0	0	7.0	42.5	43.8	0	167	0	0	0	51.4	46.6	0.0
2017 10/18 00:00	43.9	67.7	206.9	18.9	30.05	44.5	1.4	12.99	-40.1	0	7.0	42.5	45.4	0	167	0	0	0	51.3	46.5	0.0
2017 10/18 00:15	43.8	68.7	209.5	17.1	30.04	44.4	1.4	12.99	-40.1	0	6.7	41.6	45.8	0	167	0	0	0	51.1	46.4	0.0
2017 10/18 00:30	43.6	68.6	244.0	22.6	30.04	44.3	1.4	12.99	-40.0	0	6.8	40.7	44.5	0	167	0	0	0	50.9	46.4	0.0
2017 10/18 00:45	43.9	66.7	205.1	27.4	30.03	44.2	1.7	12.99	-40.0	0	6.9	40.7	44.2	0	167	0	0	0	50.7	46.2	0.0
2017 10/18 01:00	43.3	67.6	216.4	20.8	30.04	44.0	1.7	13.00	-40.0	0	6.7	40.7	42.5	0	167	0	0	0	50.5	46.1	0.0
2017 10/18 01:15	43.2	68.4	221.2	23.6	30.03	43.9	1.4	13.00	-39.9	0	6.9	40.7	41.8	0	167	0	0	0	50.4	46.0	0.0
2017 10/18 01:30	43.3	70.9	241.1	23.2	30.03	43.8	1.4	13.00	-40.0	0	7.1	40.7	41.8	0	167	0	0	0	50.2	45.9	0.0
2017 10/18 01:45	43.3	74.5	242.2	20.4	30.02	43.6	1.4	13.00	-40.0	0	6.9	41.6	41.1	0	167	0	0	0	50.0	45.9	0.0
2017 10/18 02:00	43.8	72.4	219.4	23.2	30.01	43.6	1.4	12.98	-40.0	0	6.8	42.5	40.6	0	167	0	0	0	49.6	45.7	0.0
2017 10/18 02:15	44.0	76.3	245.8	22.5	30.01	43.4	1.4	13.00	-40.0	0	6.8	43.4	44.1	0	167	0	0	0	49.6	45.6	0.0
2017 10/18 02:30	43.6	78.7	240.9	19.5	30.00	43.4	1.4	12.98	-39.9	0	6.8	43.4	45.3	0	167	0	0	0	49.5	45.5	0.0
2017 10/18 02:45	43.5	79.0	227.8	24.4	30.00	43.3	1.4	12.98	-40.0	0	6.9	43.4	45.2	0	167	0	0	0	49.4	45.5	0.0
2017 10/18 03:00	43.1	80.1	225.9	24.2	30.00	43.2	1.4	12.98	-39.9	0	6.7	43.4	46.0	0	167	0	0	0	49.6	45.5	0.0
2017 10/18 03:15	43.0	84.3	268.5	25.3	29.99	43.1	1.4	12.98	-39.9	0	6.7	42.5	45.3	0	167	0	0	0	49.3	45.5	0.0
2017 10/18 03:30	42.6	86.7	223.3	24.1	29.99	43.1	1.4	13.00	-39.9	0	6.6	42.5	45.7	0	167	0	0	0	49.2	45.3	0.0
2017 10/18 03:45	42.5	87.6	252.9	30.2	29.98	43.0	1.4	13.00	-40.0	0	6.6	42.5	45.9	0	167	0	0	0	49.2	45.3	0.0
2017 10/18 04:00	42.1	85.8	230.2	28.0	29.98	43.0	1.7	13.00	-40.0	0	6.4	42.5	46.5	0	167	0	0	0	49.0	45.5	0.0
2017 10/18 04:15	41.9	85.7	233.7	26.4	29.97	42.9	1.4	13.00	-39.9	0	6.6	42.5	45.3	0	167	0	0	0	49.0	45.5	0.0
2017 10/18 04:30	41.7	88.8	258.5	26.7	29.97	42.8	1.4	12.97	-40.0	0	6.5	41.6	45.7	0	167	0	0	0	49.0	45.5	0.0
2017 10/18 04:45	41.7	92.3	263.8	20.4	29.97	42.8	1.4	13.00	-39.9	0	6.4	41.6	45.4	0	167	0	0	0	49.0	45.5	0.0
2017 10/18 05:00	41.4	95.7	246.6	21.4	29.96	42.6	1.4	13.00	-40.0	0	6.5	41.6	45.4	0	167	0	0	0	49.0	45.5	0.0
2017 10/18 05:15	41.5	95.8	238.1	28.9	29.95	42.6	1.7	12.99	-40.0	0	6.0	42.5	45.4	0	167	0	0	0	48.9	45.5	0.0
2017 10/18 05:30	41.4	96.5	226.3	26.7	29.95	42.5	1.4	13.00	-40.0	0	6.2	42.5	46.3	0	167	0	0	0	48.9	45.5	0.0
2017 10/18 05:45	41.4	96.9	236.5	28.9	29.95	42.4	1.4	12.99	-39.9	0	6.4	42.5	46.0	0	167	0	0	0	48.8	45.5	0.0
2017 10/18 06:00	41.1	97.7	221.6	25.4	29.95	42.4	1.4	12.98	-39.9	0	5.8	42.5	46.1	0	167	0	0	0	48.8	45.5	0.0
2017 10/18 06:15	41.5	98.9	241.7	27.4	29.95	42.3	1.4	12.99	-40.0	0	6.1	42.5	46.0	0	167	0	0	0	48.8	45.6	0.0
2017 10/18 06:30	41.3	99.0	230.7	24.6	29.95	42.3	1.4	13.00	-40.1	0	5.9	42.5	45.3	0	167	0	0	0	48.7	45.6	0.0
2017 10/18 06:45	41.7	99.1	229.3	26.6	29.95	42.2	1.4	12.99	-40.0	0	6.2	41.6	45.9	0	167	0	0	0	48.7	45.6	0.0
2017 10/18 07:00	41.4	98.0	243.8	25.6	29.94	42.2	2.7	13.00	-39.9	0	6.1	41.6	45.3	0	167	0	0	0	48.7	45.6	0.0
2017 10/18 07:15	41.4	97.8	254.9	15.9	29.94	42.1	25.8	12.98	-40.0	0	5.9	41.6	45.1	0	167	0	0	0	48.8	45.6	0.0
2017 10/18 07:30	41.1	98.2	200.8	18.6	29.94	42.1	139.8	13.00	-40.1	0	5.7	41.6	44.5	0	167	0	0	0	48.7	45.6	0.0
2017 10/18 07:45	40.9	98.2	250.1	21.9	29.94	42.0	273.2	12.98	-40.0	0	5.9	40.7	44.9	0	167	0	0	0	48.7	45.6	0.0
2017 10/18 08:00	41.0	97.9	219.0	23.8	29.94	42.0	368.2	12.98	-39.9	0	5.5	41.6	43.8	0	167	0	0	0	48.6	45.6	0.0
2017 10/18 08:15	41.0	97.1	258.1	21.6	29.94	41.9	440.9	13.00	-39.9	0	5.7	41.6	45.3	0	167	0	0	0	48.6	45.6	0.0
2017 10/18 08:30	41.0	96.9	261.5	17.5	29.95	41.8	468.4	13.00	-40.0	0	4.8	40.7	45.4	0	167	0	0	0	48.6	45.6	0.0
2017 10/18 08:45	40.9	98.0	255.1	18.6	29.96	41.7	451.7	12.98	-39.9	0	5.4	41.6	44.8	0	167	0	0	0	48.7	45.6	0.0
2017 10/18 09:00	40.9	97.8	212.6	17.5	29.94	41.7	515.5	12.98	-39.9	0	5.9	41.6	45.4	0	167	0	0	0	48.6	45.6	0.0
2017 10/18 09:15	40.1	99.4	185.2	15.4	29.95	41.6	536.9	12.99	-39.9	0	5.5	41.6	44.9	0	167	0	0	0	48.6	45.6	0.0
2017 10/18 09:30	40.3	99.8	233.6	22.4	29.93	41.6	693.4	12.98	-39.9	0	5.5	40.7	45.6	0	167	0	0	0	48.6	45.6	0.0
2017 10/18 09:45	40.6	99.3	210.2	23.4	29.93	41.5	837.0	12.99	-40.0	0	5.6	42.5	45.7	0	167	0	0	0	48.6	45.6	0.0
2017 10/18 10:00	41.5	93.5	225.4	26.0	29.93	41.5	853.0	13.00	-40.1	0	5.4	44.3	47.5	0	167	0	0	0	49.2	45.7	0.0
2017 10/18 10:15	42.6	88.5	237.1	27.8	29.93	41.4	849.0	13.00	-39.8	0	4.9	47.0	48.5	0	167	0	0	0	50.4	46.4	0.0
2017 10/18 10:30	42.8	85.2	212.7	27.8	29.92	41.4	846.0	13.00	-39.9	0	5.2	45.2	48.5	0	167	0	0	0	51.3	47.2	0.0
2017 10/18 10:45	43.8	79.0	240.2	32.2	29.91	41.5	848.0	12.99	-39.9	0	5.5	46.1	48.9	0	167	0	0	0	52.4	48.2	0.0
2017 10/18 11:00	44.7	75.7	223.4	28.8	29.91	41.5	857.0	12.99	-40.0	0	5.4	47.0	50.3	0	167	0	0	0	53.3	49.2	0.0
2017 10/18 11:15	45.5	75.3	240.8	28.1	29.91	41.6	865.0	13.00	-40.0	0	5.4	47.9	50.8	0	167	0	0	0	54.3	50.3	0.0
2017 10/18 11:30	45.8	73.4	213.4	34.5	29.91	41.6	873.0	12.98	-40.0	0	5.4	48.8	51.9	0	167	0	0	0	55.0	51.0	0.0
2017 10/18 11:45	46.5	71.1	215.2	25.3	29.90	41.7	877.0	12.99	-39.9	0	5.2	48.8	52.3	0	167	0	0	0	55.9	52.0	0.0
2017 10/18 12:00	47.0	70.5	229.9	28.8	29.90	41.9	876.0	13.00	-40.0	0	5.2	49.7	53.4	0	167	0	0	0	56.8	52.9	0.0
2017 10/18 12:15	47.1	67.7	212.2	35.2	29.90	42.1	857.0	13.02	-39.9	0	5.3	49.7	53.7	0	167	0	0	0	57.6	53.5	0.0
2017 10/18 12:30	47.6	67.5	235.6	30.9	29.91	42.2	867.0	12.98	-40.1	0	5.3	49.7	53.2	0	167	0	0	0	58.2	53.9	0.0
2017 10/18 12:45	48.3	64.1	208.9	33.2	29.90	42.4	871.0	13.00	-40.0	0	5.2	50.6	54.3	0	167	0	0	0	58.8	54.3	0.0
2017 10/18 13:00	48.2	62.9	230.2	35.3	29.90	42.5	867.0	12.99	-40.1	0	4.8	52.4	54.9	0	167	0	0	0	59.5	54.9	0.0
2017 10/18 13:15	48.6	59.7	287.7	30.7	29.89	42.8	848.0	12.97	-40.0	0	4.6	52.4	54.3	0	167	0	0	0	60.2	55.7	0.0
2017 10/18 13:30	48.7	56.4	228.6	42.1	29.89	43.0	864.0	12.98	-40.1	0	4.4	53.3	54.8	0	167	0	0	0	60.5	55.9	0.0
2017 10/18 13:45	48.9	55.9	244.9	27.3	29.89	43.1	846.0	12.98	-40.0	0	4.1	53.3	54.8	0	167	0	0	0	61.1	56.4	0.0
2017 10/18 14:00	49.3	57.7	252.9	27.2	29.89	43.2	859.0	13.00	-40.0	0	4.2	54.2	55.5	0	167	0	0	0	61.3	56.8	0.0
2017 10/18 14:15	48.8	54.0	274.2	37.1	29.88	43.4	858.0	13.00	-40.0	0	3.9	53.3	55.3	0	167	0	0	0	61.8	56.9	0.0
2017 10/18 14:30	48.8	57.6	201.9	30.0	29.89	43.7	857.0	12.97	-40.0	0	4.1	53.3	55.2	0	167	0	0	0	61.9	57.0	0.0
2017 10/18 14:45	48.9	57.6	238.5	32.7	29.88	43.8	857.0	12.99	-40.0	0	3.9	54.2	55.1	0	167	0	0	0	62.1	57.0	0.0
2017 10/18 15:00	49.2	56.2	256.9	35.8	29.88	44.1	857.0	12.99	-39.9	0	4.0	53.3	55.3	0	167	0	0	0	62.3	57.3	0.0
2017 10/18 15:15	49.2	58.1	246.2	32.2	29.88	44.2	859.0	13.00	-39.9	0	3.6	54.2	55.8	0	167	0	0	0	62.7	57.4	0.0
2017 10/18 15:30	49.5	54.7	275.9	32.6	29.87	44.4	856.0	12.98	-40.0	0	3.9	53.3	55.5	0	167	0	0	0	62.8	57.4	0.0
2017 10/18 15:45	49.2	56.0	217.4	39.1	29.89	44.6	850.0	13.00	-40.0	0	4.2	52.4	55.2	0	167	0	0	0	62.8	57.2	0.0
2017 10/18 16:00	49.3	56.1	250.6	32.4	29.87	44.9	847.0	13.02	-40.1	0	3.7	52.4	54.0	0	167	0	0	0	62.9	56.8	0.0
2017 10/18 16:15	49.1	55.6	211.5	32.6	29.87	45.0	844.0	12.98	-40.0	0	3.5	52.4	53.5	0	167	0	0	0	62.9	56.5	0.0
2017 10/18 16:30	49.2	56.5	239.1	34.0	29.87	45.2	836.0	13.00	-40.1	0	3.8	51.5	53.1	0	167	0	0	0	62.8	56.0	0.0
2017 10/18 16:45	48.9	59.2	264.9	29.6	29.86	45.5	830.0	13.01	-40.0	0	3.8	50.6	53.0	0	167	0	0	0	62.5	55.5	0.0
2017 10/18 17:00	48.7	59.7	221.5	34.5	29.86	45.7	825.0	13.01	-40.1	0	4.1	49.7	52.5	0	167	0	0	0	62.4	54.9	0.0
2017 10/18 17:15	47.8	59.6	262.6	35.1	29.86	45.9	766.0	12.98	-39.9	0	3.8	48.8	52.1	0	167	0	0	0	62.2	54.5	0.0
2017 10/18 17:30	47.3	61.8	238.9	30.7	29.85	46.2	757.0	12.98	-40.0	0	4.1	47.9	51.7	0	167	0	0	0	61.5	54.1	0.0
2017 10/18 17:45	47.2	63.6	240.5	33.6	29.85	46.4	690.9	13.00	-39.9	0	4.1	47.0	51.4	0	167	0	0	0	60.6	53.7	0.0
2017 10/18 18:00	46.9	63.6	236.9	38.6	29.85	46.6	612.1	13.01	-39.9	0	3.7	47.0	50.7	0	167	0	0	0	60.2	53.2	0.0
2017 10/18 18:15	46.7	64.1	234.2	36.6	29.84	46.8	356.3	13.01	-40.1	0	3.7	46.1	50.5	0	167	0	0	0	59.5	52.9	0.0
2017 10/18 18:30	46.6	64.1	239.0	34.9	29.84	47.0	121.1	12.99	-39.9	0	3.9	46.1	50.5	0	167	0	0	0	59.2	52.5	0.0
2017 10/18 18:45	46.9	63.6	230.3	35.4	29.84	47.1	10.9	12.98	-40.1	0	3.7	47.0	49.9	0	167	0	0	0	58.6	52.2	0.0
2017 10/18 19:00	46.9	62.4	211.2	37.1	29.83	47.2	2.4	13.00	-40.0	0	3.7	46.1	50.2	0	167	0	0	0	58.2	51.9	0.0
2017 10/18 19:15	46.6	63.1	232.4	33.5	29.83	47.2	1.4	12.97	-39.9	0	3.4	46.1	49.9	0	167	0	0	0	57.8	51.6	0.0
2017 10/18 19:30	46.6	63.5	228.1	32.2	29.83	47.2	1.7	12.98	-39.9	0	3.8	46.1	49.6	0	167	0	0	0	57.5	51.4	0.0
2017 10/18 19:45	46.5	62.5	255.4	31.6	29.82	47.2	1.4	13.01	-40.0	0	3.9	46.1	49.0	0	167	0	0	0	57.0	51.2	0.0
2017 10/18 20:00	46.4	63.2	248.5	32.7	29.82	47.2	1.7	13.00	-39.8	0	4.0	46.1	49.4	0	167	0	0	0	56.6	51.0	0.0
2017 10/18 20:15	46.2	62.5	238.7	31.4	29.81	47.2	1.4	13.00	-40.0	0	3.8	46.1	49.6	0	167	0	0	0	56.4	50.7	0.0
2017 10/18 20:30	45.8	65.1	250.0	31.8	29.79	47.0	1.7	12.98	-40.0	0	3.8	45.2	49.4	0	167	0	0	0	56.0	50.5	0.0
2017 10/18 20:45	45.5	65.8	261.7	33.1	29.79	47.0	1.7	12.98	-39.9	0	3.6	45.2	49.5	0	167	0	0	0	55.7	50.3	0.0
2017 10/18 21:00	44.9	65.9	202.3	31.4	29.78	46.8	1.7	13.00	-39.9	0	3.6	45.2	48.7	0	167	0	0	0	55.5	50.1	0.0
2017 10/18 21:15	44.3	69.2	196.7	31.2	29.78	46.7	1.4	13.00	-39.9	0	3.7	44.3	48.9	0	167	0	0	0	55.2	50.0	0.0
2017 10/18 21:30	44.7	66.8	237.3	32.2	29.79	46.6	1.7	12.98	-39.9	0	3.6	45.2	48.8	0	167	0	0	0	55.0	49.8	0.0
2017 10/18 21:45	44.5	66.6	240.1	34.5	29.77	46.5	1.4	13.02	-40.1	0	3.7	44.3	48.3	0	167	0	0	0	54.7	49.7	0.0
2017 10/18 22:00	44.8	63.6	243.7	32.1	29.77	46.4	1.4	12.99	-40.1	0	3.4	44.3	47.4	0	167	0	0	0	54.5	49.5	0.0
2017 10/18 22:15	45.0	62.0	239.8	38.5	29.76	46.3	1.7	13.00	-40.2	0	3.4	44.3	47.1	0	167	0	0	0	54.0	49.4	0.0
2017 10/18 22:30	44.7	63.2	246.0	38.7	29.76	46.1	1.7	12.99	-40.0	0	3.3	45.2	48.5	0	167	0	0	0	53.8	49.3	0.0
2017 10/18 22:45	44.9	60.1	240.1	41.5	29.74	46.0	1.4	13.00	-40.1	0	3.3	45.2	48.7	0	167	0	0	0	53.5	49.0	0.0
2017 10/18 23:00	45.1	57.1	234.4	34.2	29.74	45.9	1.4	13.00	-40.0	0	3.2	45.2	48.6	0	167	0	0	0	53.3	48.9	0.0
2017 10/18 23:15	44.9	59.0	269.4	32.0	29.74	45.7	1.4	13.00	-40.0	0	3.5	45.2	48.1	0	167	0	0	0	53.0	48.7	0.0
2017 10/18 23:30	44.2	61.7	247.2	36.8	29.73	45.6	1.4	12.98	-40.1	0	3.5	44.3	48.6	0	167	0	0	0	52.9	48.6	0.0
2017 10/18 23:45	43.9	61.2	233.6	39.6	29.72	45.5	1.7	13.00	-40.0	0	3.6	44.3	48.1	0	167	0	0	0	52.7	48.5	0.0
2017 10/19 00:00	43.6	62.8	250.4	36.8	29.73	45.3	1.7	12.98	-39.9	0	3.6	43.4	48.0	0	167	0	0	0	52.5	48.5	0.0
2017 10/19 00:15	42.6	67.6	240.0	36.4	29.73	45.1	1.7	13.00	-39.9	0	3.6	43.4	47.8	0	167	0	0	0	52.4	48.3	0.0
2017 10/19 00:30	42.6	65.4	243.0	37.1	29.73	45.0	1.4	13.01	-40.0	0	3.5	43.4	47.4	0	167	0	0	0	52.2	48.3	0.0
2017 10/19 00:45	42.1	71.3	233.3	35.8	29.71	44.9	1.4	13.00	-40.1	0	3.5	43.4	47.5	0	167	0	0	0	52.2	48.2	0.0
2017 10/19 01:00	41.7	72.6	237.7	31.8	29.70	44.7	1.4	12.98	-40.0	0	3.5	42.5	46.8	0	167	0	0	0	52.0	47.9	0.0
2017 10/19 01:15	41.4	72.4	251.9	34.2	29.69	44.5	1.4	13.00	-40.0	0	2.9	42.5	46.7	0	167	0	0	0	52.0	47.9	0.0
2017 10/19 01:30	41.7	67.6	216.2	34.6	29.68	44.4	1.4	12.99	-40.0	0	3.5	41.6	46.2	0	167	0	0	0	51.6	47.8	0.0
2017 10/19 01:45	42.1	64.0	222.6	34.7	29.68	44.2	1.4	13.00	-40.1	0	3.4	41.6	46.6	0	167	0	0	0	51.3	47.7	0.0
2017 10/19 02:00	41.5	65.0	221.0	30.8	29.68	44.1	1.4	13.01	-40.1	0	3.3	42.5	46.6	0	167	0	0	0	51.4	47.6	0.0
2017 10/19 02:15	41.9	62.4	251.2	33.2	29.68	43.9	1.4	13.00	-39.9	0	3.1	42.5	46.8	0	167	0	0	0	51.3	47.5	0.0
2017 10/19 02:30	42.2	60.2	218.9	31.3	29.68	43.8	1.7	12.99	-40.0	0	3.8	42.5	47.1	0	167	0	0	0	51.3	47.5	0.0
2017 10/19 02:45	42.0	59.3	227.7	31.5	29.67	43.6	1.4	12.98	-39.9	0	3.8	42.5	46.9	0	167	0	0	0	51.0	47.4	0.0
2017 10/19 03:00	41.7	58.5	233.0	34.8	29.65	43.5	1.4	12.97	-39.9	0	3.4	42.5	46.7	0	167	0	0	0	51.1	47.2	0.0
2017 10/19 03:15	42.4	54.6	222.3	32.6	29.65	43.3	1.4	13.00	-40.1	0	3.5	42.5	46.6	0	167	0	0	0	50.9	47.1	0.0
2017 10/19 03:30	42.2	54.4	238.0	31.4	29.65	43.2	1.4	13.00	-40.1	0	3.5	42.5	46.8	0	167	0	0	0	50.7	47.0	0.0
2017 10/19 03:45	42.2	52.0	237.1	32.2	29.63	43.0	1.4	12.97	-40.1	0	3.2	43.4	46.6	0	167	0	0	0	50.7	46.9	0.0
2017 10/19 04:00	42.2	51.2	246.4	35.5	29.63	42.9	1.4	13.00	-40.0	0	3.0	41.6	45.7	0	167	0	0	0	50.4	46.9	0.0
2017 10/19 04:15	42.0	51.6	229.6	29.2	29.62	42.8	1.4	12.98	-39.9	0	3.3	41.6	45.1	0	167	0	0	0	50.5	46.8	0.0
2017 10/19 04:30	42.5	45.6	246.9	33.8	29.62	42.5	1.4	13.00	-40.0	0	3.3	42.5	45.8	0	167	0	0	0	50.3	46.7	0.0
2017 10/19 04:45	43.0	45.5	265.4	34.7	29.61	42.4	1.7	12.97	-39.9	0	3.3	43.4	46.0	0	167	0	0	0	50.3	46.6	0.0
2017 10/19 05:00	42.8	43.6	227.3	35.9	29.60	42.3	1.4	12.98	-39.9	0	3.3	43.4	47.0	0	167	0	0	0	50.1	46.5	0.0
2017 10/19 05:15	42.5	48.1	215.7	34.0	29.59	42.1	1.4	12.96	-39.9	0	3.3	43.4	47.2	0	167	0	0	0	49.6	46.4	0.0
2017 10/19 05:30	42.4	47.3	232.1	33.6	29.59	42.0	1.4	13.01	-40.1	0	3.3	43.4	47.2	0	167	0	0	0	49.7	46.2	0.0
2017 10/19 05:45	42.2	48.5	233.4	31.8	29.59	41.9	1.7	12.98	-40.0	0	3.4	43.4	47.2	0	167	0	0	0	49.5	46.2	0.0
2017 10/19 06:00	42.5	46.8	232.8	35.1	29.58	41.7	1.4	13.01	-40.0	0	3.5	42.5	47.2	0	167	0	0	0	49.4	46.1	0.0
2017 10/19 06:15	42.7	43.6	234.7	31.9	29.57	41.7	1.7	12.98	-40.0	0	3.1	42.5	47.1	0	167	0	0	0	49.3	46.1	0.0
2017 10/19 06:30	42.5	44.0	219.5	32.9	29.57	41.5	1.7	12.99	-40.0	0	2.7	42.5	47.0	0	167	0	0	0	49.3	46.0	0.0
2017 10/19 06:45	42.4	45.3	221.8	34.0	29.56	41.4	1.4	12.97	-40.0	0	2.9	42.5	47.2	0	167	0	0	0	49.2	46.0	0.0
2017 10/19 07:00	42.2	45.5	215.3	34.4	29.56	41.3	2.0	13.00	-40.1	0	3.0	43.4	47.4	0	167	0	0	0	49.2	45.9	0.0
2017 10/19 07:15	42.4	47.1	214.3	26.0	29.56	41.1	10.9	13.00	-40.0	0	2.8	43.4	47.2	0	167	0	0	0	49.2	45.9	0.0
2017 10/19 07:30	42.0	47.8	230.7	27.9	29.56	41.1	56.0	12.99	-39.9	0	2.7	42.5	47.4	0	167	0	0	0	49.2	45.9	0.0
2017 10/19 07:45	41.4	56.1	227.6	30.5	29.55	41.0	167.3	12.99	-40.1	0	2.2	42.5	46.8	0	167	0	0	0	49.2	45.8	0.0
2017 10/19 08:00	41.3	54.2	238.6	30.8	29.55	40.9	284.4	12.97	-39.9	0	2.6	42.5	46.6	0	167	0	0	0	49.0	45.7	0.0
2017 10/19 08:15	40.9	57.1	227.8	33.4	29.55	40.8	430.0	13.01	-40.0	0	2.6	40.7	45.8	0	167	0	0	0	49.0	45.8	0.0
2017 10/19 08:30	41.4	56.5	203.7	36.7	29.55	40.7	474.1	13.01	-40.0	0	2.5	40.7	45.2	0	167	0	0	0	49.0	45.8	0.0
2017 10/19 08:45	41.5	53.7	226.2	32.6	29.54	40.7	428.6	12.97	-40.0	0	2.6	41.6	46.2	0	167	0	0	0	48.9	45.8	0.0
2017 10/19 09:00	41.7	50.4	220.1	31.8	29.54	40.6	525.0	13.00	-40.0	0	2.4	41.6	46.6	0	167	0	0	0	48.8	45.7	0.0
2017 10/19 09:15	42.0	47.5	234.3	27.6	29.53	40.5	602.1	12.98	-40.0	0	2.6	41.6	46.7	0	167	0	0	0	48.8	45.7	0.0
2017 10/19 09:30	42.4	46.4	207.1	32.9	29.53	40.4	613.3	12.99	-39.9	0	2.6	42.5	46.9	0	167	0	0	0	48.8	45.7	0.0
2017 10/19 09:45	42.5	45.8	247.5	35.2	29.52	40.3	688.3	13.00	-40.0	0	2.6	43.4	47.8	0	167	0	0	0	48.8	45.6	0.0
2017 10/19 10:00	42.7	45.1	231.5	32.4	29.53	40.3	711.0	12.99	-39.8	0	2.9	43.4	48.0	0	167	0	0	0	48.9	45.6	0.0
2017 10/19 10:15	42.4	47.5	218.2	31.1	29.53	40.2	702.0	13.01	-39.9	0	2.6	43.4	48.4	0	167	0	0	0	48.9	45.7	0.0
2017 10/19 10:30	42.0	51.5	249.8	25.5	29.53	40.1	741.0	13.01	-39.9	0	1.8	43.4	48.3	0	167	0	0	0	49.0	45.7	0.0
2017 10/19 10:45	42.2	51.9	238.4	25.8	29.54	40.1	712.0	12.99	-40.0	0	2.5	42.5	46.9	0	167	0	0	0	49.2	45.8	0.0
2017 10/19 11:00	42.0	50.6	234.7	24.2	29.54	40.0	774.0	12.98	-40.1	0	2.5	42.5	46.5	0	167	0	0	0	49.4	45.9	0.0
2017 10/19 11:15	40.6	58.9	244.4	22.5	29.54	40.0	728.0	13.01	-40.0	0	2.6	41.6	46.5	0	167	0	0	0	49.5	46.0	0.0
2017 10/19 11:30	40.6	57.8	254.4	24.4	29.53	39.9	804.0	12.99	-40.1	0	2.5	42.5	46.8	0	167	0	0	0	49.7	46.1	0.0
2017 10/19 11:45	40.6	63.3	205.7	28.8	29.53	39.9	797.0	12.99	-40.1	0	2.2	42.5	47.6	0	167	0	0	0	50.4	46.5	0.0
2017 10/19 12:00	40.0	65.0	233.6	31.3	29.52	39.9	778.0	12.98	-39.9	0	1.9	38.9	43.3	0	169	0	0	0	50.9	46.9	0.0
2017 10/19 12:15	37.7	80.2	207.1	32.4	29.52	39.9	775.0	13.00	-40.1	0	2.2	38.0	41.6	0	172	0	0	0	50.9	47.0	0.0
2017 10/19 12:30	37.3	83.8	227.4	30.9	29.52	39.9	779.0	12.98	-40.1	0	2.2	38.0	42.2	0	173	0	0	0	50.7	47.0	0.0
2017 10/19 12:45	36.6	90.4	226.0	29.5	29.51	40.0	810.0	12.99	-40.0	0	2.0	38.0	42.4	0	174	0	0	0	50.5	47.0	0.0
2017 10/19 13:00	36.4	95.2	206.2	30.0	29.50	40.0	802.0	12.98	-39.9	0	1.7	38.0	42.6	0	176	0	0	0	50.4	46.9	0.0

Where:
  YYYY   = Year
  MM/DD  = Month / Date
  hh:mm  = Hour  : Minute
  Temp   = Temperature outside       (F)              @ 5720', on tower
  Humid  = Humidity    outside       (%)              @ 5720'
  W_dir  = Wind direction / Azimuth  (degrees)        @ 5720'
  W_spd  = Wind speed                (miles per hour) @ 5720'
  Barom  = Sea-level air pressure    (inches of mercury)
  T_int  = Temperature (internal)    (F)              - inside barometer case
  Light  = Outside light level       (no units)       - 0 = dark, 1000 = bright
  Power  = Power supply rail         (Volts)
  Temp2  = Temperature (back-up)     (F)
  P2     = datalogger counter channel "P2" (to be static burst counter)
  Snow   = Snow depth,  mid-mountain (inches)         @ 5010'
  T_mid  = Temperature, mid-mountain (F)              @ 5010'
  T_base = Temperature @ south lodge (F)              @ 4700'
  Precip = Precipitation total       (inches)         @ 4800' (near US20 mp81)

Notes:
1999 07/17
   Barometric data in this listing should have an additional
   temperature correction applied to it, based on the sensor's
   internal temperature:

   P_corrected = Barom + (-0.0223 * T_int) + 0.8887  (inches Hg)

2004 07/03
   The air pressure correction equation has not been checked
   in a long time.  The air pressure reading is best used only
   to observe general trends.

2006 11/18
   Added precipitation gauge.  Depth is precipitation equivalent in water,
   for the water year (beginning October 1st) at the Hogg Pass
   SnoTel station.

2011 03/11
  Fixed data column title bug from adding "T_base" after "T_mid".
  If you notice a bug like this it will get fixed a whole lot sooner
  if you tell me about it.